KLM869 EHAM-VIDP
Flight info
| Callsign | KLM869 |
|---|---|
| Flight time | N/A |
| Altitude | 33000 |
| Route | EDUPO Z739 MISGO DCT DOJOH DCT DODEN DCT NEGIX DCT DINKU DCT BESNI DCT GOMIG DCT VABEK UL603 OLOTA DCT DISOR DCT MES/N0485F350 UL609 RDS DCT VANZA DCT RASDA A16 CVO L315 HGD M872 PMA Y214 RAPMA DCT MEVDO DCT ALROK DCT DEBIN/N0481F370 DCT MIDGU M440 TULBU N881 RASKI L639 LAXOM J61 UUD Q3 BUBNU A347 UKASO UKASO7G |
| Aircraft | B77W/H-SDE1E2E3FGHIJ2J3J4J5M1RWXY/LB1D1 |
Departure
| Time | N/A |
|---|---|
| Airport | Amsterdam Airport Schiphol (EHAM) |
Arrival
| Time | 2026-05-04 05:07 |
|---|---|
| Airport | Indira Gandhi International Airport (VIDP) |
| Time | Latitude | Longitude | Altitude | Speed | Heading |
|---|---|---|---|---|---|
| 2026-05-03 20:15 | 49.72374 | 9.60875 | 32991 ft | 467 kts | 137° |
| 2026-05-03 20:15 | 49.67905 | 9.68069 | 33000 ft | 467 kts | 137° |
| 2026-05-03 20:16 | 49.63395 | 9.75306 | 32994 ft | 468 kts | 137° |
| 2026-05-03 20:16 | 49.58898 | 9.82500 | 32992 ft | 468 kts | 137° |
| 2026-05-03 20:17 | 49.54369 | 9.89727 | 32991 ft | 469 kts | 137° |
| 2026-05-03 20:17 | 49.49820 | 9.96966 | 32992 ft | 470 kts | 137° |
| 2026-05-03 20:18 | 49.45268 | 10.04190 | 32990 ft | 471 kts | 137° |
| 2026-05-03 20:18 | 49.40694 | 10.11426 | 32989 ft | 471 kts | 137° |
| 2026-05-03 20:19 | 49.36147 | 10.18601 | 33006 ft | 471 kts | 137° |
| 2026-05-03 20:19 | 49.31562 | 10.25816 | 33003 ft | 471 kts | 137° |
| 2026-05-03 20:20 | 49.26976 | 10.33014 | 33013 ft | 471 kts | 137° |
| 2026-05-03 20:20 | 49.22388 | 10.40169 | 33022 ft | 471 kts | 138° |
| 2026-05-03 20:21 | 49.17728 | 10.47131 | 33023 ft | 471 kts | 139° |
| 2026-05-03 20:21 | 49.13012 | 10.54079 | 33017 ft | 471 kts | 139° |
| 2026-05-03 20:22 | 49.09091 | 10.59865 | 33024 ft | 471 kts | 139° |
| 2026-05-03 20:22 | 49.04385 | 10.66821 | 33022 ft | 472 kts | 139° |
| 2026-05-03 20:23 | 48.99663 | 10.73787 | 33026 ft | 472 kts | 139° |
| 2026-05-03 20:23 | 48.94924 | 10.80757 | 33019 ft | 473 kts | 139° |
| 2026-05-03 20:24 | 48.90184 | 10.87710 | 33003 ft | 474 kts | 139° |
| 2026-05-03 20:24 | 48.85455 | 10.94626 | 32985 ft | 474 kts | 139° |
| 2026-05-03 20:25 | 48.80691 | 11.01576 | 32974 ft | 475 kts | 139° |
| 2026-05-03 20:25 | 48.75916 | 11.08523 | 32966 ft | 476 kts | 139° |
| 2026-05-03 20:26 | 48.71134 | 11.15463 | 32962 ft | 477 kts | 139° |
| 2026-05-03 20:26 | 48.66425 | 11.22473 | 32963 ft | 479 kts | 134° |
| 2026-05-03 20:27 | 48.62488 | 11.30630 | 32968 ft | 483 kts | 122° |
| 2026-05-03 20:27 | 48.59361 | 11.39663 | 32967 ft | 485 kts | 119° |
| 2026-05-03 20:28 | 48.56305 | 11.48757 | 32970 ft | 486 kts | 119° |
| 2026-05-03 20:28 | 48.53231 | 11.57776 | 32969 ft | 486 kts | 119° |
| 2026-05-03 20:29 | 48.50107 | 11.66838 | 32990 ft | 487 kts | 119° |
| 2026-05-03 20:29 | 48.46969 | 11.75888 | 32991 ft | 487 kts | 119° |
| 2026-05-03 20:30 | 48.43818 | 11.84951 | 32992 ft | 487 kts | 119° |
| 2026-05-03 20:30 | 48.40667 | 11.93984 | 32990 ft | 487 kts | 119° |
| 2026-05-03 20:31 | 48.37508 | 12.03011 | 32988 ft | 487 kts | 119° |
| 2026-05-03 20:31 | 48.34362 | 12.11969 | 32975 ft | 487 kts | 119° |
| 2026-05-03 20:32 | 48.31190 | 12.20968 | 32967 ft | 487 kts | 119° |
| 2026-05-03 20:32 | 48.28015 | 12.29945 | 32952 ft | 487 kts | 119° |
| 2026-05-03 20:33 | 48.24831 | 12.38917 | 32943 ft | 487 kts | 119° |
| 2026-05-03 20:33 | 48.21641 | 12.47878 | 32939 ft | 486 kts | 119° |
| 2026-05-03 20:34 | 48.18453 | 12.56806 | 32932 ft | 486 kts | 119° |
| 2026-05-03 20:34 | 48.15248 | 12.65743 | 32931 ft | 486 kts | 120° |
| 2026-05-03 20:35 | 48.11472 | 12.74089 | 32925 ft | 484 kts | 131° |
| 2026-05-03 20:35 | 48.07111 | 12.81758 | 32936 ft | 484 kts | 131° |
| 2026-05-03 20:36 | 48.02775 | 12.89372 | 32941 ft | 484 kts | 131° |
| 2026-05-03 20:36 | 47.98430 | 12.97050 | 32953 ft | 484 kts | 131° |
| 2026-05-03 20:37 | 47.94082 | 13.04750 | 32959 ft | 484 kts | 131° |
| 2026-05-03 20:37 | 47.89738 | 13.12428 | 32961 ft | 484 kts | 131° |
| 2026-05-03 20:38 | 47.85408 | 13.20058 | 32963 ft | 484 kts | 131° |
| 2026-05-03 20:38 | 47.81047 | 13.27718 | 32960 ft | 484 kts | 131° |
| 2026-05-03 20:39 | 47.76681 | 13.35364 | 32953 ft | 485 kts | 131° |
| 2026-05-03 20:39 | 47.72315 | 13.42988 | 32972 ft | 484 kts | 131° |
| 2026-05-03 20:40 | 47.67943 | 13.50601 | 32978 ft | 485 kts | 131° |
| 2026-05-03 20:40 | 47.63564 | 13.58208 | 32976 ft | 485 kts | 131° |
| 2026-05-03 20:41 | 47.59170 | 13.65816 | 32998 ft | 485 kts | 131° |
| 2026-05-03 20:41 | 47.54770 | 13.73414 | 33007 ft | 486 kts | 131° |
| 2026-05-03 20:42 | 47.50379 | 13.80975 | 33019 ft | 487 kts | 131° |
| 2026-05-03 20:42 | 47.45948 | 13.88583 | 33032 ft | 487 kts | 131° |
| 2026-05-03 20:43 | 47.41514 | 13.96174 | 33034 ft | 488 kts | 131° |
| 2026-05-03 20:43 | 47.37068 | 14.03765 | 33042 ft | 489 kts | 131° |
| 2026-05-03 20:44 | 47.32621 | 14.11337 | 33051 ft | 489 kts | 131° |
| 2026-05-03 20:44 | 47.28152 | 14.18926 | 33053 ft | 489 kts | 131° |
| 2026-05-03 20:45 | 47.23712 | 14.26441 | 33072 ft | 489 kts | 131° |
| 2026-05-03 20:45 | 47.19237 | 14.33997 | 33080 ft | 489 kts | 131° |
| 2026-05-03 20:46 | 47.14756 | 14.41542 | 33083 ft | 490 kts | 131° |
| 2026-05-03 20:46 | 47.10269 | 14.49075 | 33095 ft | 490 kts | 131° |
| 2026-05-03 20:47 | 47.05773 | 14.56604 | 33092 ft | 491 kts | 131° |
| 2026-05-03 20:47 | 47.01267 | 14.64126 | 33088 ft | 491 kts | 131° |
| 2026-05-03 20:48 | 46.96757 | 14.71635 | 33092 ft | 492 kts | 131° |
| 2026-05-03 20:48 | 46.92227 | 14.79156 | 33086 ft | 492 kts | 131° |
| 2026-05-03 20:49 | 46.87712 | 14.86633 | 33080 ft | 493 kts | 131° |
| 2026-05-03 20:49 | 46.83168 | 14.94136 | 33081 ft | 493 kts | 131° |
| 2026-05-03 20:50 | 46.78612 | 15.01638 | 33073 ft | 494 kts | 131° |
| 2026-05-03 20:50 | 46.74048 | 15.09133 | 33078 ft | 494 kts | 131° |
| 2026-05-03 20:51 | 46.69481 | 15.16613 | 33086 ft | 494 kts | 131° |
| 2026-05-03 20:51 | 46.64906 | 15.24083 | 33089 ft | 495 kts | 131° |
| 2026-05-03 20:52 | 46.60344 | 15.31512 | 33089 ft | 495 kts | 131° |
| 2026-05-03 20:52 | 46.55751 | 15.38971 | 33097 ft | 495 kts | 131° |
| 2026-05-03 20:53 | 46.51144 | 15.46434 | 33103 ft | 496 kts | 131° |
| 2026-05-03 20:53 | 46.46528 | 15.53891 | 33090 ft | 496 kts | 131° |
| 2026-05-03 20:54 | 46.41911 | 15.61328 | 33099 ft | 496 kts | 131° |
| 2026-05-03 20:54 | 46.34969 | 15.72471 | 33110 ft | 496 kts | 131° |
| 2026-05-03 20:55 | 46.30331 | 15.79890 | 33101 ft | 497 kts | 131° |
| 2026-05-03 20:55 | 46.25716 | 15.87254 | 33091 ft | 497 kts | 131° |
| 2026-05-03 20:56 | 46.21067 | 15.94652 | 33091 ft | 497 kts | 131° |
| 2026-05-03 20:56 | 46.16412 | 16.02037 | 33094 ft | 497 kts | 131° |
| 2026-05-03 20:57 | 46.11742 | 16.09428 | 33099 ft | 497 kts | 131° |
| 2026-05-03 20:57 | 46.07102 | 16.16751 | 33104 ft | 498 kts | 131° |
| 2026-05-03 20:58 | 46.02424 | 16.24115 | 33106 ft | 498 kts | 131° |
| 2026-05-03 20:58 | 45.97745 | 16.31460 | 33107 ft | 498 kts | 131° |
| 2026-05-03 20:59 | 45.93061 | 16.38792 | 33106 ft | 498 kts | 131° |
| 2026-05-03 20:59 | 45.88356 | 16.46137 | 33104 ft | 498 kts | 131° |
| 2026-05-03 21:00 | 45.85247 | 16.50982 | 33105 ft | 498 kts | 131° |
| 2026-05-03 21:00 | 45.78959 | 16.60751 | 33109 ft | 498 kts | 131° |
| 2026-05-03 21:01 | 45.74280 | 16.67998 | 33110 ft | 498 kts | 131° |
| 2026-05-03 21:01 | 45.69566 | 16.75280 | 33114 ft | 499 kts | 130° |
| 2026-05-03 21:02 | 45.64842 | 16.82558 | 33108 ft | 499 kts | 130° |
| 2026-05-03 21:02 | 45.60100 | 16.89843 | 33111 ft | 500 kts | 130° |
| 2026-05-03 21:03 | 45.55356 | 16.97114 | 33115 ft | 500 kts | 130° |
| 2026-05-03 21:03 | 45.50606 | 17.04373 | 33116 ft | 500 kts | 130° |
| 2026-05-03 21:04 | 45.45850 | 17.11622 | 33118 ft | 501 kts | 130° |
| 2026-05-03 21:04 | 45.41099 | 17.18844 | 33121 ft | 502 kts | 130° |
| 2026-05-03 21:05 | 45.36323 | 17.26087 | 33130 ft | 502 kts | 130° |
| 2026-05-03 21:05 | 45.31531 | 17.33335 | 33122 ft | 503 kts | 130° |
| 2026-05-03 21:06 | 45.26726 | 17.40580 | 33138 ft | 503 kts | 130° |
| 2026-05-03 21:06 | 45.21954 | 17.47758 | 33134 ft | 503 kts | 130° |
| 2026-05-03 21:07 | 45.17137 | 17.54984 | 33137 ft | 504 kts | 130° |
| 2026-05-03 21:07 | 45.12312 | 17.62205 | 33136 ft | 504 kts | 130° |
| 2026-05-03 21:08 | 45.07478 | 17.69419 | 33142 ft | 505 kts | 130° |
| 2026-05-03 21:08 | 45.02666 | 17.76582 | 33135 ft | 505 kts | 130° |
| 2026-05-03 21:09 | 44.97822 | 17.83774 | 33140 ft | 505 kts | 130° |
| 2026-05-03 21:09 | 44.92971 | 17.90956 | 33143 ft | 505 kts | 130° |
| 2026-05-03 21:10 | 44.88935 | 17.96918 | 33145 ft | 505 kts | 130° |
| 2026-05-03 21:10 | 44.84078 | 18.04075 | 33144 ft | 505 kts | 130° |
| 2026-05-03 21:11 | 44.78433 | 18.12371 | 33143 ft | 504 kts | 130° |
| 2026-05-03 21:11 | 44.74358 | 18.18343 | 33153 ft | 504 kts | 130° |
| 2026-05-03 21:12 | 44.69522 | 18.25415 | 33160 ft | 503 kts | 130° |
| 2026-05-03 21:12 | 44.64658 | 18.32509 | 33158 ft | 504 kts | 130° |
| 2026-05-03 21:13 | 44.59793 | 18.39586 | 33158 ft | 504 kts | 130° |
| 2026-05-03 21:13 | 44.54923 | 18.46652 | 33157 ft | 504 kts | 130° |
| 2026-05-03 21:14 | 44.50040 | 18.53720 | 33167 ft | 504 kts | 130° |
| 2026-05-03 21:14 | 44.45165 | 18.60756 | 33155 ft | 503 kts | 130° |
| 2026-05-03 21:15 | 44.40287 | 18.67779 | 33158 ft | 503 kts | 130° |
| 2026-05-03 21:15 | 44.35413 | 18.74779 | 33162 ft | 502 kts | 130° |
| 2026-05-03 21:16 | 44.30539 | 18.81762 | 33165 ft | 502 kts | 131° |
| 2026-05-03 21:16 | 44.25657 | 18.88738 | 33173 ft | 502 kts | 131° |
| 2026-05-03 21:17 | 44.20803 | 18.95657 | 33172 ft | 502 kts | 131° |
| 2026-05-03 21:17 | 44.15914 | 19.02609 | 33165 ft | 502 kts | 131° |
| 2026-05-03 21:18 | 44.11020 | 19.09547 | 33160 ft | 502 kts | 131° |
| 2026-05-03 21:18 | 44.06118 | 19.16483 | 33181 ft | 502 kts | 131° |
| 2026-05-03 21:19 | 44.01213 | 19.23404 | 33163 ft | 502 kts | 130° |
| 2026-05-03 21:19 | 43.96299 | 19.30319 | 33182 ft | 502 kts | 130° |
| 2026-05-03 21:20 | 43.91421 | 19.37171 | 33188 ft | 502 kts | 130° |
| 2026-05-03 21:20 | 43.86501 | 19.44063 | 33185 ft | 502 kts | 130° |
| 2026-05-03 21:21 | 43.81578 | 19.50936 | 33159 ft | 502 kts | 130° |
| 2026-05-03 21:21 | 43.76657 | 19.57797 | 33204 ft | 501 kts | 130° |
| 2026-05-03 21:22 | 43.71735 | 19.64638 | 33197 ft | 501 kts | 130° |
| 2026-05-03 21:22 | 43.66842 | 19.71422 | 33188 ft | 501 kts | 130° |
| 2026-05-03 21:23 | 43.61913 | 19.78242 | 33200 ft | 501 kts | 130° |
| 2026-05-03 21:23 | 43.56983 | 19.85046 | 33194 ft | 501 kts | 130° |
| 2026-05-03 21:24 | 43.52045 | 19.91844 | 33207 ft | 501 kts | 130° |
| 2026-05-03 21:24 | 43.47109 | 19.98620 | 33212 ft | 501 kts | 130° |
| 2026-05-03 21:25 | 43.42195 | 20.05354 | 33211 ft | 501 kts | 130° |
| 2026-05-03 21:25 | 43.37242 | 20.12121 | 33212 ft | 501 kts | 130° |
| 2026-05-03 21:26 | 43.32294 | 20.18866 | 33220 ft | 501 kts | 130° |
| 2026-05-03 21:26 | 43.27346 | 20.25596 | 33216 ft | 501 kts | 130° |
| 2026-05-03 21:27 | 43.22395 | 20.32312 | 33214 ft | 500 kts | 130° |
| 2026-05-03 21:27 | 43.17436 | 20.39025 | 33219 ft | 500 kts | 130° |
| 2026-05-03 21:28 | 43.12486 | 20.45710 | 33227 ft | 500 kts | 130° |
| 2026-05-03 21:28 | 43.07523 | 20.52394 | 33220 ft | 501 kts | 130° |
| 2026-05-03 21:29 | 43.02547 | 20.59084 | 33216 ft | 502 kts | 130° |
| 2026-05-03 21:29 | 42.97575 | 20.65712 | 33226 ft | 503 kts | 131° |
| 2026-05-03 21:30 | 42.92516 | 20.72319 | 33222 ft | 504 kts | 131° |
| 2026-05-03 21:30 | 42.87428 | 20.78932 | 33227 ft | 505 kts | 131° |
| 2026-05-03 21:31 | 42.82345 | 20.85543 | 33222 ft | 506 kts | 131° |
| 2026-05-03 21:31 | 42.77252 | 20.92161 | 33215 ft | 507 kts | 131° |
| 2026-05-03 21:32 | 42.72140 | 20.98790 | 33202 ft | 508 kts | 131° |
| 2026-05-03 21:32 | 42.67021 | 21.05410 | 33226 ft | 508 kts | 131° |
| 2026-05-03 21:33 | 42.61918 | 21.11992 | 33211 ft | 509 kts | 131° |
| 2026-05-03 21:33 | 42.56767 | 21.18622 | 33215 ft | 510 kts | 131° |
| 2026-05-03 21:34 | 42.51616 | 21.25234 | 33220 ft | 510 kts | 131° |
| 2026-05-03 21:34 | 42.46443 | 21.31859 | 33211 ft | 511 kts | 131° |
| 2026-05-03 21:35 | 42.41270 | 21.38471 | 33216 ft | 511 kts | 131° |
| 2026-05-03 21:35 | 42.36089 | 21.45076 | 33219 ft | 512 kts | 131° |
| 2026-05-03 21:36 | 42.30923 | 21.51648 | 33224 ft | 514 kts | 131° |
| 2026-05-03 21:36 | 42.25706 | 21.58271 | 33223 ft | 515 kts | 131° |
| 2026-05-03 21:37 | 42.20444 | 21.64856 | 33211 ft | 516 kts | 132° |
| 2026-05-03 21:37 | 42.15030 | 21.71238 | 33213 ft | 516 kts | 133° |
| 2026-05-03 21:38 | 42.09600 | 21.77555 | 33204 ft | 515 kts | 133° |
| 2026-05-03 21:38 | 42.04197 | 21.83878 | 33218 ft | 514 kts | 133° |
| 2026-05-03 21:39 | 41.98803 | 21.90214 | 33209 ft | 514 kts | 133° |
| 2026-05-03 21:39 | 41.93415 | 21.96534 | 33204 ft | 514 kts | 133° |
| 2026-05-03 21:40 | 41.88053 | 22.02805 | 33195 ft | 514 kts | 133° |
| 2026-05-03 21:40 | 41.82657 | 22.09099 | 33191 ft | 514 kts | 133° |
| 2026-05-03 21:41 | 41.77251 | 22.15388 | 33189 ft | 514 kts | 133° |
| 2026-05-03 21:41 | 41.71844 | 22.21666 | 33191 ft | 514 kts | 133° |
| 2026-05-03 21:42 | 41.66428 | 22.27940 | 33182 ft | 515 kts | 133° |
| 2026-05-03 21:42 | 41.61014 | 22.34196 | 33176 ft | 514 kts | 133° |
| 2026-05-03 21:43 | 41.55599 | 22.40438 | 33173 ft | 513 kts | 133° |
| 2026-05-03 21:43 | 41.50225 | 22.46619 | 33182 ft | 512 kts | 134° |
| 2026-05-03 21:44 | 41.44826 | 22.52816 | 33174 ft | 512 kts | 134° |
| 2026-05-03 21:44 | 41.39430 | 22.58997 | 33174 ft | 511 kts | 134° |
| 2026-05-03 21:45 | 41.34027 | 22.65170 | 33174 ft | 511 kts | 134° |
| 2026-05-03 21:45 | 41.28628 | 22.71328 | 33172 ft | 510 kts | 134° |
| 2026-05-03 21:46 | 41.23225 | 22.77466 | 33168 ft | 510 kts | 135° |
| 2026-05-03 21:46 | 41.17778 | 22.83533 | 33156 ft | 510 kts | 135° |
| 2026-05-03 21:47 | 41.12316 | 22.89569 | 33150 ft | 511 kts | 135° |
| 2026-05-03 21:47 | 41.06864 | 22.95591 | 33155 ft | 510 kts | 136° |
| 2026-05-03 21:48 | 41.01445 | 23.01576 | 33163 ft | 509 kts | 136° |
| 2026-05-03 21:48 | 40.95996 | 23.07587 | 33168 ft | 510 kts | 136° |
| 2026-05-03 21:49 | 40.90546 | 23.13584 | 33167 ft | 510 kts | 136° |
| 2026-05-03 21:49 | 40.85084 | 23.19581 | 33164 ft | 510 kts | 136° |
| 2026-05-03 21:50 | 40.79617 | 23.25568 | 33166 ft | 510 kts | 136° |
| 2026-05-03 21:50 | 40.74184 | 23.31505 | 33170 ft | 510 kts | 137° |
| 2026-05-03 21:51 | 40.68720 | 23.37462 | 33165 ft | 509 kts | 137° |
| 2026-05-03 21:51 | 40.63244 | 23.43422 | 33175 ft | 509 kts | 137° |
| 2026-05-03 21:52 | 40.57789 | 23.49343 | 33165 ft | 508 kts | 137° |
| 2026-05-03 21:52 | 40.52338 | 23.55249 | 33172 ft | 506 kts | 137° |
| 2026-05-03 21:53 | 40.46903 | 23.61123 | 33155 ft | 505 kts | 137° |
| 2026-05-03 21:53 | 40.41474 | 23.66979 | 33160 ft | 504 kts | 138° |
| 2026-05-03 21:54 | 40.36098 | 23.72765 | 33164 ft | 503 kts | 138° |
| 2026-05-03 21:54 | 40.30687 | 23.78577 | 33164 ft | 502 kts | 138° |
| 2026-05-03 21:55 | 40.25269 | 23.84384 | 33163 ft | 502 kts | 138° |
| 2026-05-03 21:55 | 40.19850 | 23.90179 | 33174 ft | 504 kts | 138° |
| 2026-05-03 21:56 | 40.17127 | 23.93087 | 33354 ft | 507 kts | 139° |
| 2026-05-03 21:56 | 40.15314 | 23.95022 | 33588 ft | 507 kts | 139° |
| 2026-05-03 21:56 | 40.11695 | 23.98878 | 34084 ft | 505 kts | 139° |
| 2026-05-03 21:56 | 40.08974 | 24.01774 | 34414 ft | 503 kts | 139° |
| 2026-05-03 21:57 | 40.06259 | 24.04659 | 34714 ft | 502 kts | 139° |
| 2026-05-03 21:57 | 40.04468 | 24.06562 | 34893 ft | 502 kts | 139° |
| 2026-05-03 21:57 | 40.01756 | 24.09440 | 35075 ft | 503 kts | 139° |
| 2026-05-03 21:57 | 39.99037 | 24.12324 | 35113 ft | 505 kts | 139° |
| 2026-05-03 21:58 | 39.93590 | 24.18089 | 35148 ft | 502 kts | 139° |
| 2026-05-03 21:58 | 39.88173 | 24.23810 | 35155 ft | 499 kts | 139° |
| 2026-05-03 21:59 | 39.82784 | 24.29490 | 35156 ft | 498 kts | 139° |
| 2026-05-03 21:59 | 39.77404 | 24.35150 | 35157 ft | 497 kts | 139° |
| 2026-05-03 22:00 | 39.72014 | 24.40807 | 35156 ft | 498 kts | 139° |
| 2026-05-03 22:00 | 39.66646 | 24.46432 | 35147 ft | 499 kts | 139° |
| 2026-05-03 22:01 | 39.61222 | 24.52102 | 35154 ft | 501 kts | 139° |
| 2026-05-03 22:01 | 39.55775 | 24.57784 | 35154 ft | 503 kts | 139° |
| 2026-05-03 22:02 | 39.50308 | 24.63475 | 35153 ft | 504 kts | 140° |
| 2026-05-03 22:02 | 39.44831 | 24.69165 | 35146 ft | 505 kts | 140° |
| 2026-05-03 22:03 | 39.39375 | 24.74821 | 35142 ft | 506 kts | 140° |
| 2026-05-03 22:03 | 39.33879 | 24.80507 | 35137 ft | 505 kts | 140° |
| 2026-05-03 22:04 | 39.28384 | 24.86180 | 35132 ft | 505 kts | 140° |
| 2026-05-03 22:04 | 39.22899 | 24.91832 | 35127 ft | 504 kts | 140° |
| 2026-05-03 22:05 | 39.17417 | 24.97468 | 35121 ft | 504 kts | 140° |
| 2026-05-03 22:05 | 39.11931 | 25.03097 | 35125 ft | 504 kts | 140° |
| 2026-05-03 22:06 | 39.06448 | 25.08710 | 35108 ft | 504 kts | 140° |
| 2026-05-03 22:06 | 39.00951 | 25.14328 | 35117 ft | 505 kts | 140° |
| 2026-05-03 22:07 | 38.95476 | 25.19913 | 35119 ft | 506 kts | 140° |
| 2026-05-03 22:07 | 38.89952 | 25.25536 | 35106 ft | 507 kts | 141° |
| 2026-05-03 22:08 | 38.84405 | 25.31169 | 35095 ft | 509 kts | 141° |
| 2026-05-03 22:08 | 38.78849 | 25.36798 | 35093 ft | 509 kts | 141° |
| 2026-05-03 22:09 | 38.73286 | 25.42426 | 35092 ft | 510 kts | 141° |
| 2026-05-03 22:10 | 38.64939 | 25.50847 | 35083 ft | 509 kts | 141° |
| 2026-05-03 22:10 | 38.59377 | 25.56445 | 35079 ft | 508 kts | 141° |
| 2026-05-03 22:11 | 38.53867 | 25.61980 | 35074 ft | 507 kts | 142° |
| 2026-05-03 22:11 | 38.48328 | 25.67531 | 35072 ft | 506 kts | 142° |
| 2026-05-03 22:12 | 38.42792 | 25.73068 | 35061 ft | 505 kts | 142° |
| 2026-05-03 22:12 | 38.37261 | 25.78591 | 35049 ft | 504 kts | 142° |
| 2026-05-03 22:13 | 38.31739 | 25.84096 | 35043 ft | 504 kts | 142° |
| 2026-05-03 22:13 | 38.26206 | 25.89599 | 35035 ft | 504 kts | 142° |
| 2026-05-03 22:14 | 38.20875 | 25.95300 | 35032 ft | 504 kts | 139° |
| 2026-05-03 22:14 | 38.15617 | 26.01180 | 35035 ft | 503 kts | 139° |
| 2026-05-03 22:15 | 38.10334 | 26.07037 | 35028 ft | 503 kts | 140° |
| 2026-05-03 22:15 | 38.05056 | 26.12847 | 35028 ft | 502 kts | 140° |
| 2026-05-03 22:16 | 37.99784 | 26.18643 | 35029 ft | 501 kts | 140° |
| 2026-05-03 22:16 | 37.94507 | 26.24436 | 35029 ft | 501 kts | 141° |
| 2026-05-03 22:17 | 37.89229 | 26.30221 | 35028 ft | 501 kts | 141° |
| 2026-05-03 22:17 | 37.83955 | 26.35993 | 35021 ft | 501 kts | 141° |
| 2026-05-03 22:18 | 37.78680 | 26.41772 | 35016 ft | 501 kts | 141° |
| 2026-05-03 22:18 | 37.73441 | 26.47506 | 35003 ft | 501 kts | 141° |
| 2026-05-03 22:19 | 37.68165 | 26.53263 | 34990 ft | 501 kts | 141° |
| 2026-05-03 22:19 | 37.62883 | 26.58995 | 34975 ft | 500 kts | 142° |
| 2026-05-03 22:20 | 37.57603 | 26.64705 | 34971 ft | 499 kts | 142° |
| 2026-05-03 22:20 | 37.52338 | 26.70394 | 34966 ft | 498 kts | 142° |
| 2026-05-03 22:21 | 37.47084 | 26.76064 | 34955 ft | 497 kts | 142° |
| 2026-05-03 22:21 | 37.41835 | 26.81717 | 34970 ft | 495 kts | 142° |
| 2026-05-03 22:22 | 37.36743 | 26.87476 | 34973 ft | 495 kts | 139° |
| 2026-05-03 22:22 | 37.31764 | 26.93458 | 34959 ft | 494 kts | 139° |
| 2026-05-03 22:23 | 37.26805 | 26.99430 | 34955 ft | 493 kts | 139° |
| 2026-05-03 22:23 | 37.21831 | 27.05373 | 34947 ft | 493 kts | 139° |
| 2026-05-03 22:24 | 37.16848 | 27.11300 | 34942 ft | 492 kts | 140° |
| 2026-05-03 22:24 | 37.11901 | 27.17168 | 34932 ft | 492 kts | 140° |
| 2026-05-03 22:25 | 37.06921 | 27.23066 | 34925 ft | 492 kts | 140° |
| 2026-05-03 22:25 | 37.01914 | 27.28986 | 34915 ft | 492 kts | 140° |
| 2026-05-03 22:26 | 36.96972 | 27.34819 | 34914 ft | 492 kts | 140° |
| 2026-05-03 22:26 | 36.91989 | 27.40687 | 34907 ft | 491 kts | 140° |
| 2026-05-03 22:27 | 36.87002 | 27.46550 | 34907 ft | 491 kts | 140° |
| 2026-05-03 22:27 | 36.82017 | 27.52400 | 34883 ft | 491 kts | 141° |
| 2026-05-03 22:28 | 36.77037 | 27.58233 | 34884 ft | 491 kts | 141° |
| 2026-05-03 22:28 | 36.72057 | 27.64055 | 34869 ft | 491 kts | 141° |
| 2026-05-03 22:29 | 36.67108 | 27.69831 | 34866 ft | 490 kts | 141° |
| 2026-05-03 22:29 | 36.62131 | 27.75627 | 34850 ft | 490 kts | 141° |
| 2026-05-03 22:30 | 36.57149 | 27.81420 | 34841 ft | 490 kts | 141° |
| 2026-05-03 22:30 | 36.52170 | 27.87198 | 34825 ft | 490 kts | 142° |
| 2026-05-03 22:31 | 36.47185 | 27.92972 | 34829 ft | 489 kts | 142° |
| 2026-05-03 22:31 | 36.42203 | 27.98734 | 34826 ft | 490 kts | 142° |
| 2026-05-03 22:32 | 36.37212 | 28.04497 | 34830 ft | 490 kts | 142° |
| 2026-05-03 22:32 | 36.32236 | 28.10272 | 34819 ft | 491 kts | 141° |
| 2026-05-03 22:33 | 36.27403 | 28.16268 | 34821 ft | 492 kts | 140° |
| 2026-05-03 22:33 | 36.22609 | 28.22331 | 34821 ft | 492 kts | 140° |
| 2026-05-03 22:34 | 36.17798 | 28.28359 | 34822 ft | 491 kts | 140° |
| 2026-05-03 22:34 | 36.13002 | 28.34314 | 34814 ft | 491 kts | 140° |
| 2026-05-03 22:35 | 36.08168 | 28.40292 | 34822 ft | 491 kts | 141° |
| 2026-05-03 22:35 | 36.03329 | 28.46267 | 34820 ft | 491 kts | 141° |
| 2026-05-03 22:36 | 35.98522 | 28.52194 | 34817 ft | 490 kts | 141° |
| 2026-05-03 22:36 | 35.93688 | 28.58143 | 34816 ft | 490 kts | 141° |
| 2026-05-03 22:37 | 35.88853 | 28.64083 | 34811 ft | 490 kts | 141° |
| 2026-05-03 22:37 | 35.84022 | 28.70009 | 34814 ft | 490 kts | 141° |
| 2026-05-03 22:38 | 35.79181 | 28.75934 | 34815 ft | 490 kts | 141° |
| 2026-05-03 22:38 | 35.74337 | 28.81853 | 34812 ft | 490 kts | 141° |
| 2026-05-03 22:39 | 35.69530 | 28.87716 | 34811 ft | 490 kts | 141° |
| 2026-05-03 22:39 | 35.64687 | 28.93613 | 34821 ft | 489 kts | 141° |
| 2026-05-03 22:40 | 35.59847 | 28.99496 | 34814 ft | 489 kts | 142° |
| 2026-05-03 22:40 | 35.55005 | 29.05369 | 34811 ft | 488 kts | 142° |
| 2026-05-03 22:41 | 35.50183 | 29.11210 | 34814 ft | 487 kts | 142° |
| 2026-05-03 22:41 | 35.45368 | 29.17030 | 34806 ft | 486 kts | 142° |
| 2026-05-03 22:42 | 35.40554 | 29.22839 | 34819 ft | 485 kts | 142° |
| 2026-05-03 22:42 | 35.35776 | 29.28593 | 34817 ft | 484 kts | 142° |
| 2026-05-03 22:43 | 35.30968 | 29.34374 | 34822 ft | 484 kts | 142° |
| 2026-05-03 22:43 | 35.26164 | 29.40140 | 34819 ft | 484 kts | 143° |
| 2026-05-03 22:44 | 35.21349 | 29.45909 | 34825 ft | 484 kts | 143° |
| 2026-05-03 22:44 | 35.17344 | 29.50699 | 34827 ft | 485 kts | 143° |
| 2026-05-03 22:45 | 35.12518 | 29.56463 | 34823 ft | 486 kts | 143° |
| 2026-05-03 22:45 | 35.07677 | 29.62235 | 34833 ft | 486 kts | 143° |
| 2026-05-03 22:46 | 35.02822 | 29.68014 | 34836 ft | 487 kts | 143° |
| 2026-05-03 22:46 | 34.97964 | 29.73787 | 34843 ft | 487 kts | 143° |
| 2026-05-03 22:47 | 34.93137 | 29.79512 | 34846 ft | 487 kts | 143° |
| 2026-05-03 22:47 | 34.88273 | 29.85272 | 34849 ft | 487 kts | 143° |
| 2026-05-03 22:48 | 34.83419 | 29.91013 | 34848 ft | 486 kts | 143° |
| 2026-05-03 22:48 | 34.78550 | 29.96717 | 34853 ft | 483 kts | 146° |
| 2026-05-03 22:49 | 34.73198 | 30.01456 | 34864 ft | 470 kts | 156° |
| 2026-05-03 22:49 | 34.67425 | 30.04988 | 34872 ft | 462 kts | 162° |
| 2026-05-03 22:50 | 34.61641 | 30.08302 | 34865 ft | 462 kts | 162° |
| 2026-05-03 22:50 | 34.55836 | 30.11652 | 34872 ft | 462 kts | 162° |
| 2026-05-03 22:51 | 34.50031 | 30.15023 | 34888 ft | 462 kts | 162° |
| 2026-05-03 22:51 | 34.44231 | 30.18395 | 34876 ft | 463 kts | 161° |
| 2026-05-03 22:52 | 34.38419 | 30.21769 | 34883 ft | 463 kts | 161° |
| 2026-05-03 22:52 | 34.32608 | 30.25136 | 34887 ft | 463 kts | 161° |
| 2026-05-03 22:53 | 34.26783 | 30.28506 | 34888 ft | 464 kts | 161° |
| 2026-05-03 22:53 | 34.20991 | 30.31851 | 34894 ft | 464 kts | 161° |
| 2026-05-03 22:54 | 34.15119 | 30.35237 | 34903 ft | 465 kts | 161° |
| 2026-05-03 22:54 | 34.09310 | 30.38582 | 34907 ft | 465 kts | 161° |
| 2026-05-03 22:55 | 34.03455 | 30.41948 | 34910 ft | 466 kts | 161° |
| 2026-05-03 22:55 | 33.97593 | 30.45313 | 34922 ft | 466 kts | 161° |
| 2026-05-03 22:56 | 33.91731 | 30.48674 | 34923 ft | 467 kts | 161° |
| 2026-05-03 22:56 | 33.85856 | 30.52036 | 34927 ft | 467 kts | 161° |
| 2026-05-03 22:57 | 33.79978 | 30.55395 | 34929 ft | 467 kts | 161° |
| 2026-05-03 22:57 | 33.74136 | 30.58729 | 34932 ft | 468 kts | 161° |
| 2026-05-03 22:58 | 33.68258 | 30.62077 | 34951 ft | 468 kts | 161° |
| 2026-05-03 22:58 | 33.62368 | 30.65427 | 34945 ft | 468 kts | 161° |
| 2026-05-03 22:59 | 33.56480 | 30.68771 | 34949 ft | 468 kts | 161° |
| 2026-05-03 22:59 | 33.50582 | 30.72117 | 34951 ft | 469 kts | 161° |
| 2026-05-03 23:00 | 33.44679 | 30.75459 | 34949 ft | 469 kts | 161° |
| 2026-05-03 23:00 | 33.38811 | 30.78777 | 34959 ft | 469 kts | 161° |
| 2026-05-03 23:01 | 33.32920 | 30.82106 | 34958 ft | 467 kts | 162° |
| 2026-05-03 23:01 | 33.27024 | 30.85427 | 34967 ft | 469 kts | 162° |
| 2026-05-03 23:02 | 33.21100 | 30.88762 | 34970 ft | 471 kts | 162° |
| 2026-05-03 23:02 | 33.15151 | 30.92107 | 34979 ft | 473 kts | 162° |
| 2026-05-03 23:03 | 33.09029 | 30.94701 | 34982 ft | 462 kts | 173° |
| 2026-05-03 23:03 | 33.02756 | 30.95902 | 34999 ft | 453 kts | 181° |
| 2026-05-03 23:04 | 32.96505 | 30.96556 | 34976 ft | 454 kts | 182° |
| 2026-05-03 23:04 | 32.90220 | 30.97217 | 34998 ft | 453 kts | 182° |
| 2026-05-03 23:05 | 32.83933 | 30.97905 | 34983 ft | 453 kts | 182° |
| 2026-05-03 23:05 | 32.77652 | 30.98604 | 34992 ft | 453 kts | 182° |
| 2026-05-03 23:06 | 32.71382 | 30.99303 | 34999 ft | 452 kts | 182° |
| 2026-05-03 23:06 | 32.65104 | 31.00001 | 35004 ft | 452 kts | 182° |
| 2026-05-03 23:07 | 32.58837 | 31.00696 | 35001 ft | 452 kts | 182° |
| 2026-05-03 23:07 | 32.52622 | 31.01384 | 35009 ft | 452 kts | 182° |
| 2026-05-03 23:08 | 32.46366 | 31.02075 | 35009 ft | 452 kts | 182° |
| 2026-05-03 23:08 | 32.40105 | 31.02766 | 35015 ft | 451 kts | 183° |
| 2026-05-03 23:09 | 32.33850 | 31.03456 | 35014 ft | 451 kts | 183° |
| 2026-05-03 23:09 | 32.27595 | 31.04145 | 35020 ft | 451 kts | 183° |
| 2026-05-03 23:10 | 32.21347 | 31.04832 | 35020 ft | 451 kts | 183° |
| 2026-05-03 23:10 | 32.15095 | 31.05518 | 35017 ft | 451 kts | 184° |
| 2026-05-03 23:10 | 32.11969 | 31.05862 | 35156 ft | 452 kts | 186° |
| 2026-05-03 23:11 | 32.08834 | 31.06204 | 35082 ft | 454 kts | 186° |
| 2026-05-03 23:11 | 32.02511 | 31.06895 | 35035 ft | 456 kts | 186° |
| 2026-05-03 23:12 | 31.96182 | 31.07588 | 35029 ft | 457 kts | 186° |
| 2026-05-03 23:12 | 31.89878 | 31.08278 | 35027 ft | 457 kts | 186° |
| 2026-05-03 23:13 | 31.83545 | 31.08970 | 35027 ft | 456 kts | 186° |
| 2026-05-03 23:13 | 31.77216 | 31.09660 | 35023 ft | 455 kts | 186° |
| 2026-05-03 23:14 | 31.70906 | 31.10347 | 35022 ft | 454 kts | 186° |
| 2026-05-03 23:14 | 31.64643 | 31.11027 | 35026 ft | 454 kts | 187° |
| 2026-05-03 23:15 | 31.58362 | 31.11708 | 35041 ft | 453 kts | 187° |
| 2026-05-03 23:15 | 31.52076 | 31.12426 | 35040 ft | 456 kts | 184° |
| 2026-05-03 23:16 | 31.45766 | 31.13574 | 35044 ft | 459 kts | 183° |
| 2026-05-03 23:16 | 31.39497 | 31.14763 | 35051 ft | 459 kts | 183° |
| 2026-05-03 23:17 | 31.33150 | 31.15939 | 35043 ft | 459 kts | 183° |
| 2026-05-03 23:17 | 31.26881 | 31.17089 | 35046 ft | 459 kts | 183° |
| 2026-05-03 23:18 | 31.20575 | 31.18252 | 35048 ft | 459 kts | 183° |
| 2026-05-03 23:18 | 31.14253 | 31.19436 | 35055 ft | 459 kts | 183° |
| 2026-05-03 23:19 | 31.07943 | 31.20618 | 35056 ft | 459 kts | 183° |
| 2026-05-03 23:19 | 31.01627 | 31.21798 | 35056 ft | 459 kts | 183° |
| 2026-05-03 23:20 | 30.95353 | 31.22968 | 35051 ft | 459 kts | 183° |
| 2026-05-03 23:20 | 30.89038 | 31.24142 | 35054 ft | 459 kts | 184° |
| 2026-05-03 23:21 | 30.82724 | 31.25316 | 35057 ft | 459 kts | 184° |
| 2026-05-03 23:21 | 30.76411 | 31.26488 | 35061 ft | 459 kts | 184° |
| 2026-05-03 23:22 | 30.66947 | 31.28241 | 35061 ft | 459 kts | 184° |
| 2026-05-03 23:22 | 30.60680 | 31.29400 | 35062 ft | 459 kts | 184° |
| 2026-05-03 23:23 | 30.54362 | 31.30567 | 35066 ft | 459 kts | 184° |
| 2026-05-03 23:23 | 30.48041 | 31.31734 | 35061 ft | 460 kts | 184° |
| 2026-05-03 23:24 | 30.41719 | 31.32893 | 35061 ft | 460 kts | 184° |
| 2026-05-03 23:24 | 30.35393 | 31.34043 | 35056 ft | 460 kts | 184° |
| 2026-05-03 23:25 | 30.29098 | 31.35187 | 35070 ft | 460 kts | 183° |
| 2026-05-03 23:25 | 30.22764 | 31.36339 | 35066 ft | 461 kts | 183° |
| 2026-05-03 23:26 | 30.16424 | 31.37490 | 35063 ft | 461 kts | 183° |
| 2026-05-03 23:26 | 30.10082 | 31.39223 | 35070 ft | 482 kts | 170° |
| 2026-05-03 23:27 | 30.06994 | 31.40844 | 35078 ft | 494 kts | 163° |
| 2026-05-03 23:27 | 30.04030 | 31.42973 | 35069 ft | 508 kts | 155° |
| 2026-05-03 23:27 | 29.98368 | 31.47853 | 35064 ft | 512 kts | 153° |
| 2026-05-03 23:28 | 29.92702 | 31.52833 | 35066 ft | 511 kts | 154° |
| 2026-05-03 23:28 | 29.87019 | 31.57744 | 35065 ft | 510 kts | 154° |
| 2026-05-03 23:29 | 29.81316 | 31.62605 | 35077 ft | 509 kts | 154° |
| 2026-05-03 23:29 | 29.75648 | 31.67412 | 35074 ft | 509 kts | 154° |
| 2026-05-03 23:30 | 29.69953 | 31.72239 | 35075 ft | 508 kts | 154° |
| 2026-05-03 23:30 | 29.64252 | 31.77070 | 35074 ft | 507 kts | 154° |
| 2026-05-03 23:31 | 29.58572 | 31.81877 | 35076 ft | 507 kts | 154° |
| 2026-05-03 23:31 | 29.52922 | 31.86651 | 35091 ft | 506 kts | 154° |
| 2026-05-03 23:32 | 29.47248 | 31.91438 | 35072 ft | 506 kts | 154° |
| 2026-05-03 23:32 | 29.42486 | 31.95450 | 35069 ft | 506 kts | 154° |
| 2026-05-03 23:33 | 29.36814 | 32.00224 | 35069 ft | 505 kts | 154° |
| 2026-05-03 23:33 | 29.31141 | 32.04992 | 35065 ft | 505 kts | 154° |
| 2026-05-03 23:34 | 29.25501 | 32.09725 | 35067 ft | 505 kts | 154° |
| 2026-05-03 23:34 | 29.19834 | 32.14474 | 35072 ft | 504 kts | 154° |
| 2026-05-03 23:35 | 29.14178 | 32.19208 | 35065 ft | 503 kts | 154° |
| 2026-05-03 23:35 | 29.08546 | 32.23914 | 35054 ft | 503 kts | 154° |
| 2026-05-03 23:36 | 29.02906 | 32.28622 | 35067 ft | 501 kts | 154° |
| 2026-05-03 23:36 | 28.97263 | 32.33325 | 35061 ft | 501 kts | 154° |
| 2026-05-03 23:37 | 28.91640 | 32.38004 | 35057 ft | 500 kts | 154° |
| 2026-05-03 23:37 | 28.86021 | 32.42672 | 35052 ft | 500 kts | 154° |
| 2026-05-03 23:38 | 28.80401 | 32.47336 | 35070 ft | 498 kts | 154° |
| 2026-05-03 23:38 | 28.74785 | 32.51992 | 35053 ft | 498 kts | 154° |
| 2026-05-03 23:39 | 28.69180 | 32.56632 | 35058 ft | 498 kts | 154° |
| 2026-05-03 23:39 | 28.63581 | 32.61260 | 35053 ft | 497 kts | 154° |
| 2026-05-03 23:40 | 28.58019 | 32.65852 | 35050 ft | 496 kts | 154° |
| 2026-05-03 23:40 | 28.52428 | 32.70460 | 35052 ft | 496 kts | 154° |
| 2026-05-03 23:41 | 28.46834 | 32.75065 | 35043 ft | 496 kts | 154° |
| 2026-05-03 23:41 | 28.41243 | 32.79662 | 35044 ft | 496 kts | 154° |
| 2026-05-03 23:42 | 28.35658 | 32.84248 | 35038 ft | 495 kts | 154° |
| 2026-05-03 23:42 | 28.30095 | 32.88810 | 35038 ft | 496 kts | 154° |
| 2026-05-03 23:43 | 28.24504 | 32.93388 | 35043 ft | 496 kts | 154° |
| 2026-05-03 23:43 | 28.18900 | 32.97972 | 35032 ft | 497 kts | 154° |
| 2026-05-03 23:44 | 28.13294 | 33.02551 | 35025 ft | 497 kts | 154° |
| 2026-05-03 23:44 | 28.07675 | 33.07136 | 35012 ft | 497 kts | 154° |
| 2026-05-03 23:45 | 28.02052 | 33.11718 | 35014 ft | 498 kts | 154° |
| 2026-05-03 23:45 | 27.96424 | 33.16295 | 35006 ft | 498 kts | 154° |
| 2026-05-03 23:46 | 27.90837 | 33.20834 | 34999 ft | 498 kts | 154° |
| 2026-05-03 23:46 | 27.85208 | 33.25403 | 34997 ft | 498 kts | 154° |
| 2026-05-03 23:47 | 27.79578 | 33.29965 | 34995 ft | 497 kts | 154° |
| 2026-05-03 23:47 | 27.73957 | 33.34514 | 34990 ft | 497 kts | 154° |
| 2026-05-03 23:48 | 27.68344 | 33.39055 | 34986 ft | 496 kts | 154° |
| 2026-05-03 23:48 | 27.62724 | 33.43593 | 34981 ft | 496 kts | 154° |
| 2026-05-03 23:49 | 27.57103 | 33.48126 | 34993 ft | 496 kts | 154° |
| 2026-05-03 23:49 | 27.51509 | 33.52632 | 34962 ft | 496 kts | 154° |
| 2026-05-03 23:50 | 27.46800 | 33.56411 | 34979 ft | 496 kts | 154° |
| 2026-05-03 23:50 | 27.40264 | 33.61647 | 34980 ft | 495 kts | 155° |
| 2026-05-03 23:51 | 27.34653 | 33.66139 | 34969 ft | 495 kts | 155° |
| 2026-05-03 23:51 | 27.29066 | 33.70606 | 34984 ft | 495 kts | 155° |
| 2026-05-03 23:52 | 27.23451 | 33.75091 | 34989 ft | 495 kts | 155° |
| 2026-05-03 23:52 | 27.18273 | 33.80387 | 34993 ft | 519 kts | 136° |
| 2026-05-03 23:53 | 27.16236 | 33.83796 | 34996 ft | 532 kts | 127° |
| 2026-05-03 23:53 | 27.14679 | 33.87619 | 35005 ft | 542 kts | 118° |
| 2026-05-03 23:53 | 27.11993 | 33.95576 | 34982 ft | 546 kts | 117° |
| 2026-05-03 23:54 | 27.09275 | 34.03539 | 34970 ft | 547 kts | 118° |
| 2026-05-03 23:54 | 27.06447 | 34.11460 | 34952 ft | 547 kts | 119° |
| 2026-05-03 23:55 | 27.03594 | 34.19387 | 34938 ft | 548 kts | 119° |
| 2026-05-03 23:55 | 27.00749 | 34.27319 | 34934 ft | 547 kts | 119° |
| 2026-05-03 23:56 | 26.97929 | 34.35190 | 34930 ft | 547 kts | 119° |
| 2026-05-03 23:56 | 26.95098 | 34.43080 | 34928 ft | 546 kts | 119° |
| 2026-05-03 23:57 | 26.92265 | 34.50958 | 34926 ft | 544 kts | 119° |
| 2026-05-03 23:57 | 26.89430 | 34.58824 | 34927 ft | 543 kts | 119° |
| 2026-05-03 23:58 | 26.86595 | 34.66671 | 34922 ft | 542 kts | 119° |
| 2026-05-03 23:58 | 26.83762 | 34.74499 | 34919 ft | 541 kts | 119° |
| 2026-05-03 23:59 | 26.80932 | 34.82303 | 34920 ft | 541 kts | 119° |
| 2026-05-03 23:59 | 26.78103 | 34.90093 | 34918 ft | 540 kts | 120° |
| 2026-05-04 00:00 | 26.75265 | 34.97877 | 34921 ft | 539 kts | 120° |
| 2026-05-04 00:00 | 26.72435 | 35.05597 | 34911 ft | 539 kts | 120° |
| 2026-05-04 00:01 | 26.69583 | 35.13363 | 34912 ft | 539 kts | 120° |
| 2026-05-04 00:01 | 26.66727 | 35.21130 | 34911 ft | 540 kts | 120° |
| 2026-05-04 00:02 | 26.63866 | 35.28902 | 34921 ft | 540 kts | 120° |
| 2026-05-04 00:02 | 26.61016 | 35.36625 | 34918 ft | 541 kts | 120° |
| 2026-05-04 00:03 | 26.58139 | 35.44411 | 34901 ft | 541 kts | 120° |
| 2026-05-04 00:03 | 26.55245 | 35.52179 | 34904 ft | 541 kts | 120° |
| 2026-05-04 00:04 | 26.52290 | 35.59896 | 34902 ft | 540 kts | 121° |
| 2026-05-04 00:04 | 26.49319 | 35.67610 | 34899 ft | 540 kts | 121° |
| 2026-05-04 00:05 | 26.46374 | 35.75272 | 34894 ft | 540 kts | 121° |
| 2026-05-04 00:05 | 26.43413 | 35.82981 | 34889 ft | 540 kts | 121° |
| 2026-05-04 00:06 | 26.40455 | 35.90671 | 34886 ft | 539 kts | 121° |
| 2026-05-04 00:06 | 26.37491 | 35.98357 | 34888 ft | 539 kts | 121° |
| 2026-05-04 00:07 | 26.34529 | 36.06021 | 34886 ft | 538 kts | 121° |
| 2026-05-04 00:07 | 26.31583 | 36.13632 | 34880 ft | 537 kts | 121° |
| 2026-05-04 00:08 | 26.28613 | 36.21290 | 34878 ft | 537 kts | 121° |
| 2026-05-04 00:08 | 26.25646 | 36.28927 | 34877 ft | 536 kts | 121° |
| 2026-05-04 00:09 | 26.22677 | 36.36554 | 34893 ft | 536 kts | 121° |
| 2026-05-04 00:09 | 26.19706 | 36.44174 | 34888 ft | 536 kts | 121° |
| 2026-05-04 00:10 | 26.16602 | 36.51635 | 34886 ft | 529 kts | 127° |
| 2026-05-04 00:10 | 26.13064 | 36.58795 | 34885 ft | 528 kts | 128° |
| 2026-05-04 00:11 | 26.09487 | 36.65935 | 34882 ft | 528 kts | 127° |
| 2026-05-04 00:11 | 26.05941 | 36.73086 | 34888 ft | 528 kts | 127° |
| 2026-05-04 00:12 | 26.02406 | 36.80253 | 34886 ft | 528 kts | 127° |
| 2026-05-04 00:12 | 25.98872 | 36.87411 | 34890 ft | 527 kts | 127° |
| 2026-05-04 00:13 | 25.95339 | 36.94548 | 34896 ft | 527 kts | 127° |
| 2026-05-04 00:13 | 25.91823 | 37.01637 | 34892 ft | 527 kts | 127° |
| 2026-05-04 00:14 | 25.88283 | 37.08764 | 34893 ft | 526 kts | 127° |
| 2026-05-04 00:14 | 25.84742 | 37.15883 | 34894 ft | 526 kts | 127° |
| 2026-05-04 00:15 | 25.81195 | 37.23003 | 34897 ft | 526 kts | 127° |
| 2026-05-04 00:15 | 25.77659 | 37.30097 | 34898 ft | 526 kts | 127° |
| 2026-05-04 00:16 | 25.74118 | 37.37206 | 34909 ft | 526 kts | 127° |
| 2026-05-04 00:16 | 25.70576 | 37.44310 | 34929 ft | 526 kts | 127° |
| 2026-05-04 00:17 | 25.67029 | 37.51410 | 34942 ft | 527 kts | 127° |
| 2026-05-04 00:17 | 25.63471 | 37.58518 | 34941 ft | 527 kts | 127° |
| 2026-05-04 00:18 | 25.59923 | 37.65601 | 34939 ft | 529 kts | 127° |
| 2026-05-04 00:18 | 25.56353 | 37.72717 | 34921 ft | 527 kts | 127° |
| 2026-05-04 00:19 | 25.52786 | 37.79814 | 34933 ft | 525 kts | 127° |
| 2026-05-04 00:19 | 25.49833 | 37.85681 | 34935 ft | 524 kts | 127° |
| 2026-05-04 00:20 | 25.46286 | 37.92717 | 34928 ft | 523 kts | 127° |
| 2026-05-04 00:20 | 25.42736 | 37.99747 | 34933 ft | 523 kts | 127° |
| 2026-05-04 00:21 | 25.39181 | 38.06776 | 34927 ft | 523 kts | 127° |
| 2026-05-04 00:21 | 25.35626 | 38.13796 | 34920 ft | 523 kts | 127° |
| 2026-05-04 00:22 | 25.32090 | 38.20770 | 34928 ft | 523 kts | 127° |
| 2026-05-04 00:22 | 25.28525 | 38.27787 | 34927 ft | 524 kts | 127° |
| 2026-05-04 00:23 | 25.24948 | 38.34818 | 34927 ft | 526 kts | 127° |
| 2026-05-04 00:23 | 25.21356 | 38.41870 | 34929 ft | 527 kts | 127° |
| 2026-05-04 00:24 | 25.17756 | 38.48928 | 34942 ft | 528 kts | 127° |
| 2026-05-04 00:24 | 25.14142 | 38.56002 | 34934 ft | 529 kts | 127° |
| 2026-05-04 00:25 | 25.10522 | 38.63080 | 34953 ft | 531 kts | 127° |
| 2026-05-04 00:25 | 25.06886 | 38.70179 | 34974 ft | 532 kts | 127° |
| 2026-05-04 00:26 | 25.03259 | 38.77255 | 34957 ft | 534 kts | 127° |
| 2026-05-04 00:26 | 24.99606 | 38.84374 | 34953 ft | 531 kts | 127° |
| 2026-05-04 00:27 | 24.95968 | 38.91450 | 34948 ft | 529 kts | 127° |
| 2026-05-04 00:27 | 24.92335 | 38.98464 | 34960 ft | 526 kts | 127° |
| 2026-05-04 00:28 | 24.88726 | 39.05402 | 34971 ft | 524 kts | 127° |
| 2026-05-04 00:28 | 24.85105 | 39.12363 | 34973 ft | 524 kts | 127° |
| 2026-05-04 00:29 | 24.81476 | 39.19335 | 34976 ft | 524 kts | 127° |
| 2026-05-04 00:29 | 24.77845 | 39.26300 | 34979 ft | 524 kts | 127° |
| 2026-05-04 00:30 | 24.74221 | 39.33243 | 34980 ft | 526 kts | 127° |
| 2026-05-04 00:30 | 24.70570 | 39.40233 | 34986 ft | 527 kts | 127° |
| 2026-05-04 00:31 | 24.66907 | 39.47235 | 34987 ft | 528 kts | 127° |
| 2026-05-04 00:31 | 24.63241 | 39.54233 | 34995 ft | 529 kts | 127° |
| 2026-05-04 00:32 | 24.59570 | 39.61236 | 34995 ft | 527 kts | 127° |
| 2026-05-04 00:32 | 24.56140 | 39.68379 | 34978 ft | 534 kts | 117° |
| 2026-05-04 00:33 | 24.53583 | 39.80371 | 35004 ft | 547 kts | 99° |
| 2026-05-04 00:34 | 24.52872 | 39.88698 | 34986 ft | 548 kts | 99° |
| 2026-05-04 00:34 | 24.52156 | 39.97030 | 34997 ft | 548 kts | 99° |
| 2026-05-04 00:35 | 24.51374 | 40.05358 | 34998 ft | 548 kts | 100° |
| 2026-05-04 00:35 | 24.50561 | 40.13668 | 34996 ft | 547 kts | 100° |
| 2026-05-04 00:36 | 24.49742 | 40.21989 | 34992 ft | 547 kts | 100° |
| 2026-05-04 00:36 | 24.48926 | 40.30285 | 34992 ft | 546 kts | 100° |
| 2026-05-04 00:37 | 24.48107 | 40.38590 | 34996 ft | 546 kts | 100° |
| 2026-05-04 00:37 | 24.47285 | 40.46879 | 34996 ft | 545 kts | 100° |
| 2026-05-04 00:38 | 24.46459 | 40.55151 | 34996 ft | 545 kts | 100° |
| 2026-05-04 00:38 | 24.45635 | 40.63358 | 34996 ft | 544 kts | 100° |
| 2026-05-04 00:39 | 24.44802 | 40.71611 | 34999 ft | 544 kts | 100° |
| 2026-05-04 00:39 | 24.43965 | 40.79865 | 35002 ft | 543 kts | 100° |
| 2026-05-04 00:40 | 24.43123 | 40.88111 | 35007 ft | 543 kts | 100° |
| 2026-05-04 00:40 | 24.42282 | 40.96305 | 35006 ft | 543 kts | 100° |
| 2026-05-04 00:41 | 24.41434 | 41.04540 | 35010 ft | 543 kts | 100° |
| 2026-05-04 00:41 | 24.40577 | 41.12770 | 35010 ft | 542 kts | 100° |
| 2026-05-04 00:42 | 24.39709 | 41.20994 | 35013 ft | 542 kts | 100° |
| 2026-05-04 00:42 | 24.38843 | 41.29159 | 35012 ft | 542 kts | 100° |
| 2026-05-04 00:43 | 24.37968 | 41.37378 | 35014 ft | 542 kts | 100° |
| 2026-05-04 00:43 | 24.37090 | 41.45593 | 35017 ft | 542 kts | 100° |
| 2026-05-04 00:44 | 24.36207 | 41.53807 | 35014 ft | 542 kts | 100° |
| 2026-05-04 00:44 | 24.35321 | 41.62010 | 35015 ft | 542 kts | 100° |
| 2026-05-04 00:45 | 24.34431 | 41.70217 | 35020 ft | 541 kts | 100° |
| 2026-05-04 00:45 | 24.33536 | 41.78422 | 35019 ft | 541 kts | 100° |
| 2026-05-04 00:46 | 24.32166 | 41.86444 | 35013 ft | 535 kts | 110° |
| 2026-05-04 00:46 | 24.30062 | 41.94271 | 35019 ft | 535 kts | 111° |
| 2026-05-04 00:47 | 24.27931 | 42.02089 | 35016 ft | 535 kts | 110° |
| 2026-05-04 00:47 | 24.25839 | 42.09930 | 35019 ft | 535 kts | 110° |
| 2026-05-04 00:48 | 24.23771 | 42.17760 | 35019 ft | 535 kts | 110° |
| 2026-05-04 00:48 | 24.21712 | 42.25544 | 35019 ft | 535 kts | 110° |
| 2026-05-04 00:49 | 24.19633 | 42.33375 | 35020 ft | 535 kts | 110° |
| 2026-05-04 00:49 | 24.17551 | 42.41191 | 35028 ft | 535 kts | 110° |
| 2026-05-04 00:50 | 24.15462 | 42.49018 | 35026 ft | 534 kts | 110° |
| 2026-05-04 00:50 | 24.13372 | 42.56829 | 35031 ft | 534 kts | 110° |
| 2026-05-04 00:51 | 24.11294 | 42.64582 | 35032 ft | 534 kts | 110° |
| 2026-05-04 00:51 | 24.09198 | 42.72380 | 35033 ft | 533 kts | 110° |
| 2026-05-04 00:52 | 24.07103 | 42.80161 | 35036 ft | 533 kts | 110° |
| 2026-05-04 00:52 | 24.05006 | 42.87934 | 35040 ft | 532 kts | 110° |
| 2026-05-04 00:53 | 24.02907 | 42.95703 | 35040 ft | 532 kts | 110° |
| 2026-05-04 00:53 | 24.00806 | 43.03467 | 35044 ft | 531 kts | 110° |
| 2026-05-04 00:54 | 23.98722 | 43.11156 | 35043 ft | 530 kts | 110° |
| 2026-05-04 00:54 | 23.96624 | 43.18881 | 35043 ft | 529 kts | 110° |
| 2026-05-04 00:55 | 23.94528 | 43.26581 | 35040 ft | 528 kts | 110° |
| 2026-05-04 00:55 | 23.92431 | 43.34268 | 35048 ft | 528 kts | 110° |
| 2026-05-04 00:56 | 23.90332 | 43.41946 | 35042 ft | 527 kts | 110° |
| 2026-05-04 00:56 | 23.88229 | 43.49622 | 35041 ft | 526 kts | 110° |
| 2026-05-04 00:57 | 23.86125 | 43.57287 | 35037 ft | 526 kts | 110° |
| 2026-05-04 00:57 | 23.84016 | 43.64952 | 35034 ft | 526 kts | 110° |
| 2026-05-04 00:58 | 23.81923 | 43.72544 | 35020 ft | 526 kts | 110° |
| 2026-05-04 00:58 | 23.79808 | 43.80201 | 35017 ft | 526 kts | 110° |
| 2026-05-04 00:59 | 23.77783 | 43.87881 | 35012 ft | 527 kts | 105° |
| 2026-05-04 00:59 | 23.76757 | 43.95836 | 35017 ft | 531 kts | 96° |
| 2026-05-04 01:00 | 23.76233 | 44.03840 | 35008 ft | 531 kts | 96° |
| 2026-05-04 01:00 | 23.75686 | 44.11894 | 35001 ft | 532 kts | 97° |
| 2026-05-04 01:01 | 23.75091 | 44.19953 | 35008 ft | 532 kts | 97° |
| 2026-05-04 01:01 | 23.74476 | 44.27992 | 35015 ft | 532 kts | 97° |
| 2026-05-04 01:02 | 23.73862 | 44.35989 | 35005 ft | 532 kts | 97° |
| 2026-05-04 01:02 | 23.73241 | 44.44057 | 35007 ft | 532 kts | 97° |
| 2026-05-04 01:03 | 23.72620 | 44.52094 | 35001 ft | 531 kts | 97° |
| 2026-05-04 01:03 | 23.71995 | 44.60129 | 35012 ft | 531 kts | 97° |
| 2026-05-04 01:04 | 23.71365 | 44.68159 | 35002 ft | 530 kts | 97° |
| 2026-05-04 01:04 | 23.70736 | 44.76124 | 35010 ft | 530 kts | 97° |
| 2026-05-04 01:05 | 23.70101 | 44.84133 | 35006 ft | 529 kts | 97° |
| 2026-05-04 01:05 | 23.69460 | 44.92134 | 35003 ft | 529 kts | 97° |
| 2026-05-04 01:06 | 23.68813 | 45.00127 | 35000 ft | 528 kts | 97° |
| 2026-05-04 01:06 | 23.68168 | 45.08064 | 35001 ft | 528 kts | 97° |
| 2026-05-04 01:07 | 23.67516 | 45.16046 | 34997 ft | 528 kts | 97° |
| 2026-05-04 01:07 | 23.66859 | 45.24027 | 34997 ft | 528 kts | 97° |
| 2026-05-04 01:08 | 23.66309 | 45.30688 | 34991 ft | 528 kts | 97° |
| 2026-05-04 01:08 | 23.65649 | 45.38669 | 34990 ft | 528 kts | 97° |
| 2026-05-04 01:09 | 23.64983 | 45.46660 | 34989 ft | 529 kts | 97° |
| 2026-05-04 01:09 | 23.64312 | 45.54654 | 34979 ft | 529 kts | 97° |
| 2026-05-04 01:10 | 23.63639 | 45.62637 | 34977 ft | 529 kts | 97° |
| 2026-05-04 01:10 | 23.62961 | 45.70629 | 34970 ft | 529 kts | 97° |
| 2026-05-04 01:11 | 23.62285 | 45.78565 | 34971 ft | 529 kts | 97° |
| 2026-05-04 01:11 | 23.61601 | 45.86544 | 34965 ft | 529 kts | 97° |
| 2026-05-04 01:12 | 23.60913 | 45.94521 | 34966 ft | 528 kts | 97° |
| 2026-05-04 01:12 | 23.60221 | 46.02504 | 34963 ft | 528 kts | 97° |
| 2026-05-04 01:13 | 23.59525 | 46.10475 | 34978 ft | 528 kts | 97° |
| 2026-05-04 01:13 | 23.58825 | 46.18450 | 34976 ft | 528 kts | 97° |
| 2026-05-04 01:14 | 23.58121 | 46.26420 | 34961 ft | 527 kts | 97° |
| 2026-05-04 01:14 | 23.57420 | 46.34332 | 34988 ft | 526 kts | 97° |
| 2026-05-04 01:15 | 23.56710 | 46.42275 | 34970 ft | 526 kts | 98° |
| 2026-05-04 01:15 | 23.55998 | 46.50209 | 34976 ft | 525 kts | 98° |
| 2026-05-04 01:16 | 23.55277 | 46.58141 | 34984 ft | 525 kts | 98° |
| 2026-05-04 01:16 | 23.54546 | 46.66053 | 34976 ft | 525 kts | 98° |
| 2026-05-04 01:17 | 23.53816 | 46.73920 | 34956 ft | 525 kts | 98° |
| 2026-05-04 01:17 | 23.53078 | 46.81839 | 34967 ft | 525 kts | 98° |
| 2026-05-04 01:18 | 23.52338 | 46.89747 | 34954 ft | 525 kts | 98° |
| 2026-05-04 01:18 | 23.51594 | 46.97662 | 34952 ft | 524 kts | 98° |
| 2026-05-04 01:19 | 23.50845 | 47.05572 | 34950 ft | 524 kts | 98° |
| 2026-05-04 01:19 | 23.50098 | 47.13425 | 34943 ft | 524 kts | 98° |
| 2026-05-04 01:20 | 23.49343 | 47.21317 | 34943 ft | 524 kts | 98° |
| 2026-05-04 01:20 | 23.48584 | 47.29211 | 34933 ft | 523 kts | 98° |
| 2026-05-04 01:21 | 23.47823 | 47.37086 | 34935 ft | 523 kts | 98° |
| 2026-05-04 01:21 | 23.47058 | 47.44960 | 34933 ft | 522 kts | 98° |
| 2026-05-04 01:22 | 23.46291 | 47.52814 | 34926 ft | 521 kts | 98° |
| 2026-05-04 01:22 | 23.45526 | 47.60668 | 34923 ft | 521 kts | 98° |
| 2026-05-04 01:23 | 23.44764 | 47.68477 | 34921 ft | 520 kts | 98° |
| 2026-05-04 01:23 | 23.43997 | 47.76295 | 34913 ft | 520 kts | 98° |
| 2026-05-04 01:24 | 23.43225 | 47.84121 | 34915 ft | 519 kts | 98° |
| 2026-05-04 01:24 | 23.42449 | 47.91942 | 34907 ft | 519 kts | 98° |
| 2026-05-04 01:25 | 23.41671 | 47.99750 | 34907 ft | 519 kts | 98° |
| 2026-05-04 01:25 | 23.40888 | 48.07566 | 34891 ft | 519 kts | 98° |
| 2026-05-04 01:26 | 23.40100 | 48.15383 | 34895 ft | 519 kts | 98° |
| 2026-05-04 01:26 | 23.39311 | 48.23193 | 34893 ft | 519 kts | 98° |
| 2026-05-04 01:27 | 23.38304 | 48.30913 | 34882 ft | 517 kts | 107° |
| 2026-05-04 01:27 | 23.35813 | 48.38191 | 34886 ft | 511 kts | 120° |
| 2026-05-04 01:28 | 23.32120 | 48.44741 | 34882 ft | 507 kts | 126° |
| 2026-05-04 01:28 | 23.28251 | 48.51172 | 34874 ft | 508 kts | 126° |
| 2026-05-04 01:29 | 23.24410 | 48.57628 | 34865 ft | 508 kts | 126° |
| 2026-05-04 01:29 | 23.20624 | 48.64063 | 34874 ft | 508 kts | 126° |
| 2026-05-04 01:30 | 23.16822 | 48.70541 | 34874 ft | 508 kts | 126° |
| 2026-05-04 01:30 | 23.13018 | 48.77011 | 34865 ft | 507 kts | 126° |
| 2026-05-04 01:31 | 23.09217 | 48.83462 | 34863 ft | 507 kts | 126° |
| 2026-05-04 01:31 | 23.05408 | 48.89917 | 34864 ft | 506 kts | 126° |
| 2026-05-04 01:32 | 23.01629 | 48.96312 | 34867 ft | 506 kts | 126° |
| 2026-05-04 01:32 | 22.97824 | 49.02743 | 34863 ft | 506 kts | 126° |
| 2026-05-04 01:33 | 22.94015 | 49.09175 | 34865 ft | 505 kts | 126° |
| 2026-05-04 01:33 | 22.90208 | 49.15594 | 34861 ft | 505 kts | 126° |
| 2026-05-04 01:34 | 22.86428 | 49.21960 | 34847 ft | 505 kts | 126° |
| 2026-05-04 01:34 | 22.82620 | 49.28366 | 34854 ft | 505 kts | 126° |
| 2026-05-04 01:35 | 22.78809 | 49.34769 | 34853 ft | 506 kts | 126° |
| 2026-05-04 01:35 | 22.74987 | 49.41182 | 34853 ft | 505 kts | 125° |
| 2026-05-04 01:36 | 22.71168 | 49.47584 | 34855 ft | 505 kts | 125° |
| 2026-05-04 01:36 | 22.67367 | 49.53947 | 34856 ft | 505 kts | 125° |
| 2026-05-04 01:37 | 22.63540 | 49.60347 | 34852 ft | 505 kts | 125° |
| 2026-05-04 01:37 | 22.59715 | 49.66736 | 34850 ft | 505 kts | 125° |
| 2026-05-04 01:38 | 22.55923 | 49.73143 | 34849 ft | 506 kts | 122° |
| 2026-05-04 01:38 | 22.53021 | 49.80087 | 34856 ft | 508 kts | 111° |
| 2026-05-04 01:39 | 22.51218 | 49.87499 | 34853 ft | 510 kts | 104° |
| 2026-05-04 01:39 | 22.49734 | 49.94960 | 34848 ft | 510 kts | 103° |
| 2026-05-04 01:40 | 22.48229 | 50.02452 | 34846 ft | 510 kts | 104° |
| 2026-05-04 01:40 | 22.46681 | 50.09946 | 34847 ft | 510 kts | 104° |
| 2026-05-04 01:41 | 22.45117 | 50.17423 | 34843 ft | 509 kts | 104° |
| 2026-05-04 01:41 | 22.43550 | 50.24886 | 34844 ft | 509 kts | 104° |
| 2026-05-04 01:42 | 22.41983 | 50.32344 | 34843 ft | 509 kts | 104° |
| 2026-05-04 01:42 | 22.40423 | 50.39754 | 34844 ft | 508 kts | 104° |
| 2026-05-04 01:43 | 22.38851 | 50.47209 | 34841 ft | 508 kts | 104° |
| 2026-05-04 01:43 | 22.37277 | 50.54650 | 34843 ft | 508 kts | 104° |
| 2026-05-04 01:44 | 22.35701 | 50.62086 | 34840 ft | 508 kts | 104° |
| 2026-05-04 01:44 | 22.34120 | 50.69526 | 34841 ft | 508 kts | 104° |
| 2026-05-04 01:45 | 22.32536 | 50.76963 | 34838 ft | 508 kts | 104° |
| 2026-05-04 01:45 | 22.30153 | 50.88118 | 34839 ft | 508 kts | 104° |
| 2026-05-04 01:46 | 22.28570 | 50.95505 | 34838 ft | 508 kts | 104° |
| 2026-05-04 01:46 | 22.26973 | 51.02942 | 34837 ft | 508 kts | 104° |
| 2026-05-04 01:47 | 22.25370 | 51.10388 | 34832 ft | 509 kts | 104° |
| 2026-05-04 01:47 | 22.24564 | 51.14126 | 34941 ft | 512 kts | 104° |
| 2026-05-04 01:47 | 22.23756 | 51.17868 | 35224 ft | 512 kts | 104° |
| 2026-05-04 01:48 | 22.22958 | 51.21560 | 35574 ft | 511 kts | 104° |
| 2026-05-04 01:48 | 22.22152 | 51.25288 | 35945 ft | 509 kts | 104° |
| 2026-05-04 01:48 | 22.21347 | 51.29003 | 36294 ft | 507 kts | 104° |
| 2026-05-04 01:48 | 22.20543 | 51.32710 | 36593 ft | 507 kts | 104° |
| 2026-05-04 01:49 | 22.19738 | 51.36418 | 36780 ft | 508 kts | 104° |
| 2026-05-04 01:49 | 22.18928 | 51.40144 | 36808 ft | 510 kts | 104° |
| 2026-05-04 01:49 | 22.17308 | 51.47580 | 36817 ft | 507 kts | 104° |
| 2026-05-04 01:50 | 22.15696 | 51.54971 | 36817 ft | 504 kts | 104° |
| 2026-05-04 01:50 | 22.14087 | 51.62325 | 36822 ft | 502 kts | 104° |
| 2026-05-04 01:51 | 22.12480 | 51.69653 | 36825 ft | 502 kts | 104° |
| 2026-05-04 01:51 | 22.10877 | 51.76942 | 36823 ft | 503 kts | 104° |
| 2026-05-04 01:52 | 22.09258 | 51.84295 | 36822 ft | 504 kts | 104° |
| 2026-05-04 01:52 | 22.07629 | 51.91674 | 36821 ft | 505 kts | 104° |
| 2026-05-04 01:53 | 22.06005 | 51.99011 | 36815 ft | 507 kts | 104° |
| 2026-05-04 01:53 | 22.04366 | 52.06403 | 36814 ft | 507 kts | 104° |
| 2026-05-04 01:54 | 22.02720 | 52.13810 | 36813 ft | 508 kts | 104° |
| 2026-05-04 01:54 | 22.01070 | 52.21220 | 36813 ft | 508 kts | 104° |
| 2026-05-04 01:55 | 21.99416 | 52.28628 | 36814 ft | 508 kts | 104° |
| 2026-05-04 01:55 | 21.97760 | 52.36028 | 36811 ft | 507 kts | 104° |
| 2026-05-04 01:56 | 21.96112 | 52.43378 | 36810 ft | 507 kts | 104° |
| 2026-05-04 01:56 | 21.94453 | 52.50758 | 36810 ft | 506 kts | 104° |
| 2026-05-04 01:57 | 21.93075 | 52.56878 | 36808 ft | 506 kts | 104° |
| 2026-05-04 01:57 | 21.91413 | 52.64248 | 36809 ft | 505 kts | 104° |
| 2026-05-04 01:58 | 21.89933 | 52.71636 | 36816 ft | 505 kts | 98° |
| 2026-05-04 01:58 | 21.89413 | 52.79183 | 36818 ft | 505 kts | 93° |
| 2026-05-04 01:59 | 21.89058 | 52.86736 | 36811 ft | 505 kts | 93° |
| 2026-05-04 01:59 | 21.88672 | 52.94298 | 36814 ft | 505 kts | 94° |
| 2026-05-04 02:00 | 21.88252 | 53.01812 | 36811 ft | 506 kts | 94° |
| 2026-05-04 02:00 | 21.87817 | 53.09379 | 36809 ft | 506 kts | 94° |
| 2026-05-04 02:01 | 21.87378 | 53.16949 | 36816 ft | 506 kts | 94° |
| 2026-05-04 02:01 | 21.86938 | 53.24515 | 36814 ft | 507 kts | 94° |
| 2026-05-04 02:02 | 21.86495 | 53.32095 | 36809 ft | 507 kts | 94° |
| 2026-05-04 02:02 | 21.86049 | 53.39667 | 36810 ft | 507 kts | 94° |
| 2026-05-04 02:03 | 21.85599 | 53.47247 | 36809 ft | 507 kts | 94° |
| 2026-05-04 02:03 | 21.85147 | 53.54784 | 36809 ft | 507 kts | 94° |
| 2026-05-04 02:04 | 21.84691 | 53.62352 | 36805 ft | 507 kts | 94° |
| 2026-05-04 02:04 | 21.84231 | 53.69917 | 36805 ft | 507 kts | 94° |
| 2026-05-04 02:05 | 21.83767 | 53.77490 | 36807 ft | 507 kts | 94° |
| 2026-05-04 02:05 | 21.83300 | 53.85053 | 36805 ft | 507 kts | 94° |
| 2026-05-04 02:06 | 21.82830 | 53.92625 | 36802 ft | 507 kts | 94° |
| 2026-05-04 02:06 | 21.82358 | 54.00154 | 36806 ft | 507 kts | 94° |
| 2026-05-04 02:07 | 21.81880 | 54.07726 | 36803 ft | 507 kts | 94° |
| 2026-05-04 02:07 | 21.81400 | 54.15290 | 36801 ft | 507 kts | 94° |
| 2026-05-04 02:08 | 21.80915 | 54.22863 | 36803 ft | 507 kts | 94° |
| 2026-05-04 02:08 | 21.80427 | 54.30436 | 36801 ft | 507 kts | 94° |
| 2026-05-04 02:09 | 21.79936 | 54.38000 | 36800 ft | 507 kts | 94° |
| 2026-05-04 02:09 | 21.79441 | 54.45572 | 36795 ft | 507 kts | 94° |
| 2026-05-04 02:10 | 21.79457 | 54.53063 | 36793 ft | 503 kts | 76° |
| 2026-05-04 02:10 | 21.80536 | 54.56631 | 36808 ft | 501 kts | 64° |
| 2026-05-04 02:10 | 21.82277 | 54.59860 | 36799 ft | 498 kts | 49° |
| 2026-05-04 02:11 | 21.86848 | 54.65402 | 36799 ft | 496 kts | 45° |
| 2026-05-04 02:11 | 21.91494 | 54.70953 | 36807 ft | 499 kts | 46° |
| 2026-05-04 02:12 | 21.96082 | 54.76553 | 36805 ft | 502 kts | 46° |
| 2026-05-04 02:12 | 22.00688 | 54.82239 | 36805 ft | 504 kts | 47° |
| 2026-05-04 02:13 | 22.05298 | 54.87944 | 36805 ft | 504 kts | 47° |
| 2026-05-04 02:13 | 22.09910 | 54.93651 | 36804 ft | 504 kts | 47° |
| 2026-05-04 02:14 | 22.14511 | 54.99346 | 36803 ft | 503 kts | 46° |
| 2026-05-04 02:14 | 22.19077 | 55.05004 | 36803 ft | 502 kts | 46° |
| 2026-05-04 02:15 | 22.23664 | 55.10695 | 36799 ft | 501 kts | 46° |
| 2026-05-04 02:15 | 22.28238 | 55.16376 | 36807 ft | 500 kts | 46° |
| 2026-05-04 02:16 | 22.32804 | 55.22053 | 36802 ft | 500 kts | 46° |
| 2026-05-04 02:16 | 22.37341 | 55.27700 | 36805 ft | 500 kts | 46° |
| 2026-05-04 02:17 | 22.41904 | 55.33395 | 36805 ft | 501 kts | 48° |
| 2026-05-04 02:17 | 22.45827 | 55.39634 | 36811 ft | 504 kts | 59° |
| 2026-05-04 02:18 | 22.48734 | 55.46560 | 36813 ft | 507 kts | 66° |
| 2026-05-04 02:18 | 22.51327 | 55.53662 | 36814 ft | 508 kts | 67° |
| 2026-05-04 02:19 | 22.53917 | 55.60728 | 36810 ft | 509 kts | 66° |
| 2026-05-04 02:19 | 22.56566 | 55.67844 | 36810 ft | 509 kts | 66° |
| 2026-05-04 02:20 | 22.59223 | 55.74949 | 36816 ft | 510 kts | 66° |
| 2026-05-04 02:20 | 22.61877 | 55.82062 | 36817 ft | 510 kts | 66° |
| 2026-05-04 02:21 | 22.64515 | 55.89149 | 36817 ft | 510 kts | 66° |
| 2026-05-04 02:21 | 22.67163 | 55.96275 | 36815 ft | 510 kts | 66° |
| 2026-05-04 02:22 | 22.69804 | 56.03397 | 36818 ft | 509 kts | 66° |
| 2026-05-04 02:22 | 22.72446 | 56.10528 | 36820 ft | 509 kts | 66° |
| 2026-05-04 02:23 | 22.75076 | 56.17642 | 36825 ft | 509 kts | 66° |
| 2026-05-04 02:23 | 22.77685 | 56.24709 | 36826 ft | 509 kts | 66° |
| 2026-05-04 02:24 | 22.80311 | 56.31833 | 36829 ft | 508 kts | 66° |
| 2026-05-04 02:24 | 22.82822 | 56.39008 | 36836 ft | 510 kts | 71° |
| 2026-05-04 02:25 | 22.84423 | 56.46508 | 36846 ft | 511 kts | 77° |
| 2026-05-04 02:25 | 22.85787 | 56.54080 | 36846 ft | 512 kts | 77° |
| 2026-05-04 02:26 | 22.87179 | 56.61655 | 36853 ft | 512 kts | 77° |
| 2026-05-04 02:26 | 22.88593 | 56.69172 | 36862 ft | 512 kts | 77° |
| 2026-05-04 02:27 | 22.90025 | 56.76743 | 36871 ft | 513 kts | 77° |
| 2026-05-04 02:27 | 22.91455 | 56.84338 | 36880 ft | 513 kts | 77° |
| 2026-05-04 02:28 | 22.92879 | 56.91935 | 36882 ft | 513 kts | 77° |
| 2026-05-04 02:28 | 22.94296 | 56.99517 | 36884 ft | 513 kts | 77° |
| 2026-05-04 02:29 | 22.95701 | 57.07058 | 36899 ft | 513 kts | 77° |
| 2026-05-04 02:29 | 22.97110 | 57.14639 | 36906 ft | 513 kts | 77° |
| 2026-05-04 02:30 | 22.98517 | 57.22230 | 36903 ft | 513 kts | 77° |
| 2026-05-04 02:30 | 22.99886 | 57.29824 | 36902 ft | 513 kts | 79° |
| 2026-05-04 02:31 | 23.00436 | 57.37548 | 36925 ft | 514 kts | 87° |
| 2026-05-04 02:31 | 23.00613 | 57.45320 | 36907 ft | 515 kts | 87° |
| 2026-05-04 02:32 | 23.00814 | 57.53100 | 36912 ft | 515 kts | 87° |
| 2026-05-04 02:32 | 23.01054 | 57.60876 | 36906 ft | 516 kts | 87° |
| 2026-05-04 02:33 | 23.01298 | 57.68612 | 36880 ft | 515 kts | 87° |
| 2026-05-04 02:33 | 23.01535 | 57.76391 | 36874 ft | 515 kts | 87° |
| 2026-05-04 02:34 | 23.01767 | 57.84167 | 36870 ft | 516 kts | 87° |
| 2026-05-04 02:34 | 23.01878 | 57.91959 | 36862 ft | 517 kts | 89° |
| 2026-05-04 02:35 | 23.01845 | 57.99777 | 36860 ft | 518 kts | 89° |
| 2026-05-04 02:35 | 23.01819 | 58.07601 | 36852 ft | 519 kts | 89° |
| 2026-05-04 02:36 | 23.01816 | 58.15445 | 36841 ft | 519 kts | 89° |
| 2026-05-04 02:36 | 23.01816 | 58.23226 | 36841 ft | 519 kts | 89° |
| 2026-05-04 02:37 | 23.01810 | 58.31072 | 36837 ft | 518 kts | 89° |
| 2026-05-04 02:37 | 23.01803 | 58.38901 | 36837 ft | 518 kts | 88° |
| 2026-05-04 02:38 | 23.02023 | 58.46692 | 36828 ft | 516 kts | 86° |
| 2026-05-04 02:38 | 23.02349 | 58.54479 | 36823 ft | 515 kts | 86° |
| 2026-05-04 02:39 | 23.02637 | 58.62257 | 36819 ft | 515 kts | 86° |
| 2026-05-04 02:39 | 23.02892 | 58.70034 | 36798 ft | 515 kts | 86° |
| 2026-05-04 02:40 | 23.03137 | 58.77757 | 36812 ft | 515 kts | 86° |
| 2026-05-04 02:40 | 23.03384 | 58.85527 | 36783 ft | 515 kts | 86° |
| 2026-05-04 02:41 | 23.03628 | 58.93316 | 36772 ft | 515 kts | 86° |
| 2026-05-04 02:41 | 23.03867 | 59.01107 | 36778 ft | 516 kts | 86° |
| 2026-05-04 02:42 | 23.04097 | 59.08894 | 36763 ft | 516 kts | 86° |
| 2026-05-04 02:42 | 23.04320 | 59.16644 | 36751 ft | 516 kts | 86° |
| 2026-05-04 02:43 | 23.04541 | 59.24436 | 36755 ft | 516 kts | 86° |
| 2026-05-04 02:43 | 23.04760 | 59.32225 | 36742 ft | 516 kts | 86° |
| 2026-05-04 02:44 | 23.04966 | 59.40023 | 36740 ft | 516 kts | 87° |
| 2026-05-04 02:44 | 23.05093 | 59.47822 | 36736 ft | 516 kts | 87° |
| 2026-05-04 02:45 | 23.05182 | 59.54299 | 36735 ft | 516 kts | 87° |
| 2026-05-04 02:45 | 23.05295 | 59.62090 | 36734 ft | 516 kts | 87° |
| 2026-05-04 02:46 | 23.05413 | 59.69901 | 36739 ft | 516 kts | 87° |
| 2026-05-04 02:46 | 23.05528 | 59.77697 | 36740 ft | 517 kts | 87° |
| 2026-05-04 02:47 | 23.05638 | 59.85513 | 36758 ft | 517 kts | 87° |
| 2026-05-04 02:47 | 23.05742 | 59.93325 | 36754 ft | 517 kts | 87° |
| 2026-05-04 02:48 | 23.05830 | 60.01089 | 36752 ft | 517 kts | 87° |
| 2026-05-04 02:48 | 23.05912 | 60.08900 | 36755 ft | 518 kts | 87° |
| 2026-05-04 02:49 | 23.05993 | 60.16741 | 36764 ft | 518 kts | 87° |
| 2026-05-04 02:49 | 23.06072 | 60.24558 | 36761 ft | 518 kts | 87° |
| 2026-05-04 02:50 | 23.06146 | 60.32387 | 36753 ft | 518 kts | 87° |
| 2026-05-04 02:50 | 23.06216 | 60.40218 | 36757 ft | 518 kts | 87° |
| 2026-05-04 02:51 | 23.06282 | 60.48000 | 36765 ft | 518 kts | 87° |
| 2026-05-04 02:51 | 23.06345 | 60.55837 | 36761 ft | 519 kts | 87° |
| 2026-05-04 02:52 | 23.06405 | 60.63668 | 36756 ft | 519 kts | 87° |
| 2026-05-04 02:52 | 23.06467 | 60.71520 | 36763 ft | 519 kts | 87° |
| 2026-05-04 02:53 | 23.06529 | 60.79312 | 36755 ft | 519 kts | 87° |
| 2026-05-04 02:53 | 23.06587 | 60.87159 | 36755 ft | 519 kts | 87° |
| 2026-05-04 02:54 | 23.06640 | 60.95008 | 36766 ft | 519 kts | 87° |
| 2026-05-04 02:54 | 23.06689 | 61.02849 | 36753 ft | 519 kts | 87° |
| 2026-05-04 02:55 | 23.06756 | 61.14619 | 36764 ft | 520 kts | 87° |
| 2026-05-04 02:56 | 23.06796 | 61.22431 | 36763 ft | 520 kts | 87° |
| 2026-05-04 02:56 | 23.06832 | 61.30281 | 36765 ft | 520 kts | 87° |
| 2026-05-04 02:57 | 23.06864 | 61.38141 | 36768 ft | 520 kts | 87° |
| 2026-05-04 02:57 | 23.06893 | 61.46007 | 36754 ft | 521 kts | 87° |
| 2026-05-04 02:58 | 23.06922 | 61.53867 | 36772 ft | 521 kts | 87° |
| 2026-05-04 02:58 | 23.06956 | 61.61685 | 36772 ft | 521 kts | 87° |
| 2026-05-04 02:59 | 23.06987 | 61.69560 | 36771 ft | 521 kts | 87° |
| 2026-05-04 02:59 | 23.07009 | 61.77437 | 36761 ft | 521 kts | 87° |
| 2026-05-04 03:00 | 23.07012 | 61.85307 | 36766 ft | 521 kts | 87° |
| 2026-05-04 03:00 | 23.07009 | 61.93184 | 36765 ft | 521 kts | 87° |
| 2026-05-04 03:01 | 23.07005 | 62.01066 | 36775 ft | 521 kts | 87° |
| 2026-05-04 03:01 | 23.06997 | 62.08898 | 36772 ft | 522 kts | 87° |
| 2026-05-04 03:02 | 23.06987 | 62.16786 | 36775 ft | 522 kts | 88° |
| 2026-05-04 03:02 | 23.06972 | 62.24677 | 36775 ft | 522 kts | 88° |
| 2026-05-04 03:03 | 23.06953 | 62.32578 | 36774 ft | 522 kts | 88° |
| 2026-05-04 03:03 | 23.06930 | 62.40463 | 36776 ft | 522 kts | 88° |
| 2026-05-04 03:04 | 23.06903 | 62.48348 | 36765 ft | 522 kts | 88° |
| 2026-05-04 03:04 | 23.06873 | 62.56187 | 36774 ft | 522 kts | 88° |
| 2026-05-04 03:05 | 23.06839 | 62.64077 | 36765 ft | 522 kts | 88° |
| 2026-05-04 03:05 | 23.06800 | 62.71957 | 36784 ft | 522 kts | 88° |
| 2026-05-04 03:06 | 23.06758 | 62.79847 | 36765 ft | 522 kts | 88° |
| 2026-05-04 03:06 | 23.06712 | 62.87730 | 36782 ft | 521 kts | 88° |
| 2026-05-04 03:07 | 23.06662 | 62.95558 | 36773 ft | 521 kts | 88° |
| 2026-05-04 03:07 | 23.06608 | 63.03439 | 36787 ft | 521 kts | 88° |
| 2026-05-04 03:08 | 23.06550 | 63.11310 | 36773 ft | 521 kts | 88° |
| 2026-05-04 03:08 | 23.06488 | 63.19192 | 36771 ft | 522 kts | 88° |
| 2026-05-04 03:09 | 23.06423 | 63.27078 | 36786 ft | 522 kts | 88° |
| 2026-05-04 03:09 | 23.06353 | 63.34967 | 36788 ft | 522 kts | 88° |
| 2026-05-04 03:10 | 23.06292 | 63.41600 | 36770 ft | 522 kts | 88° |
| 2026-05-04 03:10 | 23.06215 | 63.49489 | 36775 ft | 523 kts | 88° |
| 2026-05-04 03:11 | 23.06134 | 63.57331 | 36778 ft | 523 kts | 88° |
| 2026-05-04 03:11 | 23.06049 | 63.65254 | 36766 ft | 523 kts | 88° |
| 2026-05-04 03:12 | 23.05961 | 63.73173 | 36769 ft | 524 kts | 88° |
| 2026-05-04 03:12 | 23.05869 | 63.81037 | 36772 ft | 524 kts | 88° |
| 2026-05-04 03:13 | 23.05645 | 63.88962 | 36766 ft | 526 kts | 93° |
| 2026-05-04 03:13 | 23.04853 | 63.96872 | 36769 ft | 527 kts | 94° |
| 2026-05-04 03:14 | 23.03991 | 64.04787 | 36773 ft | 527 kts | 94° |
| 2026-05-04 03:14 | 23.03160 | 64.12689 | 36768 ft | 527 kts | 94° |
| 2026-05-04 03:15 | 23.02352 | 64.20596 | 36772 ft | 527 kts | 94° |
| 2026-05-04 03:15 | 23.01548 | 64.28452 | 36768 ft | 527 kts | 94° |
| 2026-05-04 03:16 | 23.00732 | 64.36365 | 36770 ft | 527 kts | 94° |
| 2026-05-04 03:16 | 22.99910 | 64.44282 | 36768 ft | 527 kts | 94° |
| 2026-05-04 03:17 | 22.99083 | 64.52198 | 36770 ft | 527 kts | 94° |
| 2026-05-04 03:17 | 22.98254 | 64.60105 | 36767 ft | 527 kts | 94° |
| 2026-05-04 03:18 | 22.97421 | 64.68017 | 36767 ft | 527 kts | 94° |
| 2026-05-04 03:18 | 22.96585 | 64.75918 | 36768 ft | 527 kts | 94° |
| 2026-05-04 03:19 | 22.95803 | 64.83830 | 36771 ft | 526 kts | 91° |
| 2026-05-04 03:19 | 22.95747 | 64.91743 | 36772 ft | 524 kts | 86° |
| 2026-05-04 03:20 | 22.95856 | 64.99597 | 36767 ft | 524 kts | 86° |
| 2026-05-04 03:20 | 22.95941 | 65.07497 | 36766 ft | 524 kts | 86° |
| 2026-05-04 03:21 | 22.95988 | 65.15424 | 36766 ft | 524 kts | 86° |
| 2026-05-04 03:21 | 22.96019 | 65.23335 | 36764 ft | 525 kts | 86° |
| 2026-05-04 03:22 | 22.96047 | 65.31269 | 36767 ft | 525 kts | 86° |
| 2026-05-04 03:22 | 22.96073 | 65.39219 | 36766 ft | 525 kts | 86° |
| 2026-05-04 03:23 | 22.96097 | 65.47095 | 36764 ft | 526 kts | 87° |
| 2026-05-04 03:23 | 22.96116 | 65.55040 | 36766 ft | 526 kts | 87° |
| 2026-05-04 03:24 | 22.96132 | 65.62980 | 36765 ft | 526 kts | 87° |
| 2026-05-04 03:24 | 22.96143 | 65.70917 | 36764 ft | 526 kts | 87° |
| 2026-05-04 03:25 | 22.96151 | 65.78864 | 36763 ft | 526 kts | 87° |
| 2026-05-04 03:25 | 22.96154 | 65.86807 | 36763 ft | 526 kts | 87° |
| 2026-05-04 03:26 | 22.96154 | 65.94701 | 36765 ft | 526 kts | 87° |
| 2026-05-04 03:26 | 22.96149 | 66.02647 | 36765 ft | 526 kts | 87° |
| 2026-05-04 03:27 | 22.96141 | 66.10593 | 36764 ft | 526 kts | 87° |
| 2026-05-04 03:27 | 22.96129 | 66.18537 | 36763 ft | 526 kts | 87° |
| 2026-05-04 03:28 | 22.96112 | 66.26473 | 36765 ft | 526 kts | 87° |
| 2026-05-04 03:28 | 22.96092 | 66.34366 | 36762 ft | 526 kts | 87° |
| 2026-05-04 03:29 | 22.96068 | 66.42303 | 36763 ft | 526 kts | 87° |
| 2026-05-04 03:29 | 22.96040 | 66.50246 | 36766 ft | 526 kts | 87° |
| 2026-05-04 03:30 | 22.96008 | 66.58195 | 36766 ft | 526 kts | 87° |
| 2026-05-04 03:30 | 22.95972 | 66.66137 | 36761 ft | 527 kts | 87° |
| 2026-05-04 03:31 | 22.95932 | 66.74095 | 36768 ft | 527 kts | 87° |
| 2026-05-04 03:31 | 22.95888 | 66.82051 | 36763 ft | 527 kts | 87° |
| 2026-05-04 03:32 | 22.95841 | 66.89958 | 36766 ft | 527 kts | 87° |
| 2026-05-04 03:32 | 22.95798 | 66.96622 | 36764 ft | 527 kts | 87° |
| 2026-05-04 03:33 | 22.95801 | 67.05870 | 36767 ft | 527 kts | 86° |
| 2026-05-04 03:33 | 22.95828 | 67.12533 | 36765 ft | 527 kts | 86° |
| 2026-05-04 03:34 | 22.95850 | 67.20435 | 36765 ft | 527 kts | 87° |
| 2026-05-04 03:34 | 22.95860 | 67.28407 | 36764 ft | 527 kts | 87° |
| 2026-05-04 03:35 | 22.95864 | 67.36360 | 36762 ft | 527 kts | 87° |
| 2026-05-04 03:35 | 22.95864 | 67.44288 | 36766 ft | 527 kts | 87° |
| 2026-05-04 03:36 | 22.95861 | 67.52257 | 36762 ft | 527 kts | 87° |
| 2026-05-04 03:36 | 22.95853 | 67.60224 | 36765 ft | 527 kts | 87° |
| 2026-05-04 03:37 | 22.95842 | 67.68188 | 36767 ft | 527 kts | 87° |
| 2026-05-04 03:37 | 22.95827 | 67.76160 | 36764 ft | 527 kts | 87° |
| 2026-05-04 03:38 | 22.95809 | 67.84070 | 36765 ft | 528 kts | 87° |
| 2026-05-04 03:38 | 22.95796 | 67.92037 | 36762 ft | 527 kts | 87° |
| 2026-05-04 03:39 | 22.95808 | 68.00011 | 36761 ft | 527 kts | 86° |
| 2026-05-04 03:39 | 22.95818 | 68.07920 | 36762 ft | 528 kts | 87° |
| 2026-05-04 03:40 | 22.95820 | 68.15879 | 36766 ft | 528 kts | 87° |
| 2026-05-04 03:40 | 22.95816 | 68.23857 | 36764 ft | 528 kts | 87° |
| 2026-05-04 03:41 | 22.95808 | 68.31823 | 36761 ft | 528 kts | 87° |
| 2026-05-04 03:41 | 22.95734 | 68.39794 | 36759 ft | 529 kts | 89° |
| 2026-05-04 03:42 | 22.95304 | 68.47768 | 36766 ft | 530 kts | 91° |
| 2026-05-04 03:42 | 22.94790 | 68.55749 | 36764 ft | 530 kts | 91° |
| 2026-05-04 03:43 | 22.94299 | 68.63677 | 36768 ft | 530 kts | 91° |
| 2026-05-04 03:43 | 22.93825 | 68.71671 | 36769 ft | 530 kts | 91° |
| 2026-05-04 03:44 | 22.93356 | 68.79646 | 36766 ft | 530 kts | 91° |
| 2026-05-04 03:44 | 22.92880 | 68.87633 | 36768 ft | 530 kts | 91° |
| 2026-05-04 03:45 | 22.92398 | 68.95613 | 36766 ft | 530 kts | 91° |
| 2026-05-04 03:45 | 22.91911 | 69.03599 | 36769 ft | 530 kts | 91° |
| 2026-05-04 03:46 | 22.91421 | 69.11585 | 36774 ft | 530 kts | 91° |
| 2026-05-04 03:46 | 22.90926 | 69.19572 | 36771 ft | 531 kts | 91° |
| 2026-05-04 03:47 | 22.90428 | 69.27565 | 36773 ft | 531 kts | 91° |
| 2026-05-04 03:47 | 22.89928 | 69.35505 | 36771 ft | 531 kts | 91° |
| 2026-05-04 03:48 | 22.89422 | 69.43489 | 36771 ft | 531 kts | 91° |
| 2026-05-04 03:48 | 22.88911 | 69.51476 | 36774 ft | 531 kts | 91° |
| 2026-05-04 03:49 | 22.88396 | 69.59473 | 36773 ft | 531 kts | 91° |
| 2026-05-04 03:49 | 22.87878 | 69.67467 | 36774 ft | 531 kts | 91° |
| 2026-05-04 03:50 | 22.87376 | 69.75457 | 36773 ft | 531 kts | 91° |
| 2026-05-04 03:50 | 22.86917 | 69.83472 | 36771 ft | 532 kts | 91° |
| 2026-05-04 03:51 | 22.86460 | 69.91478 | 36771 ft | 532 kts | 91° |
| 2026-05-04 03:51 | 22.85990 | 69.99487 | 36771 ft | 532 kts | 91° |
| 2026-05-04 03:52 | 22.85516 | 70.07450 | 36772 ft | 532 kts | 91° |
| 2026-05-04 03:52 | 22.85033 | 70.15479 | 36770 ft | 532 kts | 91° |
| 2026-05-04 03:53 | 22.84547 | 70.23498 | 36770 ft | 533 kts | 91° |
| 2026-05-04 03:53 | 22.84058 | 70.31508 | 36775 ft | 533 kts | 91° |
| 2026-05-04 03:54 | 22.83564 | 70.39530 | 36771 ft | 533 kts | 91° |
| 2026-05-04 03:54 | 22.83070 | 70.47505 | 36772 ft | 533 kts | 92° |
| 2026-05-04 03:55 | 22.82568 | 70.55523 | 36775 ft | 533 kts | 92° |
| 2026-05-04 03:55 | 22.82061 | 70.63559 | 36776 ft | 533 kts | 92° |
| 2026-05-04 03:56 | 22.81554 | 70.71554 | 36776 ft | 533 kts | 92° |
| 2026-05-04 03:56 | 22.81298 | 70.79557 | 36770 ft | 528 kts | 81° |
| 2026-05-04 03:56 | 22.81977 | 70.83435 | 36790 ft | 522 kts | 70° |
| 2026-05-04 03:57 | 22.83197 | 70.87135 | 36791 ft | 517 kts | 61° |
| 2026-05-04 03:57 | 22.86899 | 70.93700 | 36794 ft | 509 kts | 51° |
| 2026-05-04 03:58 | 22.92869 | 71.03233 | 36785 ft | 513 kts | 51° |
| 2026-05-04 03:58 | 22.96829 | 71.09698 | 36781 ft | 515 kts | 52° |
| 2026-05-04 03:59 | 23.00772 | 71.16217 | 36776 ft | 516 kts | 52° |
| 2026-05-04 03:59 | 23.04705 | 71.22743 | 36777 ft | 517 kts | 52° |
| 2026-05-04 04:00 | 23.08647 | 71.29284 | 36772 ft | 517 kts | 52° |
| 2026-05-04 04:00 | 23.12587 | 71.35823 | 36769 ft | 517 kts | 52° |
| 2026-05-04 04:01 | 23.16499 | 71.42322 | 36775 ft | 517 kts | 52° |
| 2026-05-04 04:01 | 23.20428 | 71.48860 | 36772 ft | 517 kts | 52° |
| 2026-05-04 04:02 | 23.24356 | 71.55404 | 36770 ft | 517 kts | 52° |
| 2026-05-04 04:02 | 23.28287 | 71.61960 | 36783 ft | 517 kts | 52° |
| 2026-05-04 04:03 | 23.32209 | 71.68510 | 36780 ft | 517 kts | 52° |
| 2026-05-04 04:03 | 23.36132 | 71.75071 | 36775 ft | 517 kts | 52° |
| 2026-05-04 04:04 | 23.40034 | 71.81604 | 36777 ft | 517 kts | 52° |
| 2026-05-04 04:04 | 23.43978 | 71.88217 | 36772 ft | 518 kts | 52° |
| 2026-05-04 04:05 | 23.47882 | 71.94772 | 36763 ft | 518 kts | 52° |
| 2026-05-04 04:05 | 23.51803 | 72.01363 | 36774 ft | 519 kts | 52° |
| 2026-05-04 04:06 | 23.55729 | 72.07970 | 36769 ft | 519 kts | 53° |
| 2026-05-04 04:06 | 23.59655 | 72.14588 | 36766 ft | 520 kts | 53° |
| 2026-05-04 04:07 | 23.63585 | 72.21219 | 36774 ft | 520 kts | 53° |
| 2026-05-04 04:07 | 23.67483 | 72.27807 | 36776 ft | 521 kts | 53° |
| 2026-05-04 04:08 | 23.71416 | 72.34463 | 36777 ft | 521 kts | 53° |
| 2026-05-04 04:08 | 23.75339 | 72.41109 | 36782 ft | 521 kts | 53° |
| 2026-05-04 04:09 | 23.79268 | 72.47774 | 36786 ft | 522 kts | 53° |
| 2026-05-04 04:09 | 23.83196 | 72.54448 | 36786 ft | 522 kts | 53° |
| 2026-05-04 04:10 | 23.87125 | 72.61131 | 36795 ft | 523 kts | 53° |
| 2026-05-04 04:10 | 23.91052 | 72.67822 | 36800 ft | 523 kts | 53° |
| 2026-05-04 04:11 | 23.94963 | 72.74492 | 36803 ft | 524 kts | 53° |
| 2026-05-04 04:11 | 23.98897 | 72.81212 | 36811 ft | 524 kts | 53° |
| 2026-05-04 04:12 | 24.02803 | 72.87892 | 36813 ft | 524 kts | 53° |
| 2026-05-04 04:12 | 24.06735 | 72.94625 | 36818 ft | 525 kts | 54° |
| 2026-05-04 04:13 | 24.10668 | 73.01372 | 36826 ft | 525 kts | 54° |
| 2026-05-04 04:13 | 24.14592 | 73.08109 | 36830 ft | 525 kts | 54° |
| 2026-05-04 04:14 | 24.18521 | 73.14867 | 36836 ft | 526 kts | 54° |
| 2026-05-04 04:14 | 24.22432 | 73.21603 | 36836 ft | 526 kts | 54° |
| 2026-05-04 04:15 | 24.26356 | 73.28367 | 36847 ft | 526 kts | 54° |
| 2026-05-04 04:15 | 24.30278 | 73.35140 | 36853 ft | 526 kts | 54° |
| 2026-05-04 04:16 | 24.34203 | 73.41928 | 36850 ft | 527 kts | 54° |
| 2026-05-04 04:16 | 24.38123 | 73.48717 | 36854 ft | 527 kts | 54° |
| 2026-05-04 04:17 | 24.42044 | 73.55515 | 36857 ft | 527 kts | 54° |
| 2026-05-04 04:17 | 24.45960 | 73.62315 | 36856 ft | 527 kts | 54° |
| 2026-05-04 04:18 | 24.49844 | 73.69070 | 36869 ft | 526 kts | 54° |
| 2026-05-04 04:18 | 24.53756 | 73.75883 | 36860 ft | 527 kts | 54° |
| 2026-05-04 04:19 | 24.57669 | 73.82706 | 36865 ft | 528 kts | 54° |
| 2026-05-04 04:19 | 24.61374 | 73.87983 | 36870 ft | 521 kts | 41° |
| 2026-05-04 04:20 | 24.67910 | 73.93675 | 36854 ft | 511 kts | 25° |
| 2026-05-04 04:20 | 24.74090 | 73.97538 | 36853 ft | 510 kts | 24° |
| 2026-05-04 04:21 | 24.79241 | 74.00719 | 36856 ft | 511 kts | 24° |
| 2026-05-04 04:21 | 24.85438 | 74.04610 | 36848 ft | 512 kts | 25° |
| 2026-05-04 04:22 | 24.91611 | 74.08540 | 36846 ft | 513 kts | 25° |
| 2026-05-04 04:22 | 24.97790 | 74.12490 | 36839 ft | 513 kts | 25° |
| 2026-05-04 04:23 | 25.03963 | 74.16439 | 36843 ft | 513 kts | 25° |
| 2026-05-04 04:23 | 25.10151 | 74.20398 | 36839 ft | 513 kts | 25° |
| 2026-05-04 04:24 | 25.16285 | 74.24326 | 36841 ft | 512 kts | 25° |
| 2026-05-04 04:24 | 25.22445 | 74.28276 | 36844 ft | 512 kts | 25° |
| 2026-05-04 04:25 | 25.28614 | 74.32235 | 36848 ft | 512 kts | 25° |
| 2026-05-04 04:25 | 25.34771 | 74.36193 | 36840 ft | 512 kts | 25° |
| 2026-05-04 04:26 | 25.40938 | 74.40161 | 36851 ft | 512 kts | 25° |
| 2026-05-04 04:26 | 25.47055 | 74.44101 | 36849 ft | 512 kts | 25° |
| 2026-05-04 04:27 | 25.53239 | 74.48089 | 36853 ft | 513 kts | 25° |
| 2026-05-04 04:27 | 25.59412 | 74.52075 | 36850 ft | 513 kts | 25° |
| 2026-05-04 04:28 | 25.65585 | 74.56067 | 36857 ft | 514 kts | 25° |
| 2026-05-04 04:28 | 25.71738 | 74.60050 | 36852 ft | 515 kts | 25° |
| 2026-05-04 04:29 | 25.77929 | 74.64062 | 36855 ft | 515 kts | 25° |
| 2026-05-04 04:29 | 25.84124 | 74.68083 | 36855 ft | 516 kts | 25° |
| 2026-05-04 04:30 | 25.90329 | 74.72114 | 36854 ft | 516 kts | 25° |
| 2026-05-04 04:30 | 25.96545 | 74.76158 | 36853 ft | 517 kts | 25° |
| 2026-05-04 04:31 | 26.02747 | 74.80197 | 36852 ft | 517 kts | 25° |
| 2026-05-04 04:31 | 26.08953 | 74.84245 | 36850 ft | 517 kts | 25° |
| 2026-05-04 04:32 | 26.15115 | 74.88268 | 36859 ft | 517 kts | 25° |
| 2026-05-04 04:32 | 26.21321 | 74.92326 | 36856 ft | 517 kts | 25° |
| 2026-05-04 04:33 | 26.27533 | 74.96393 | 36860 ft | 518 kts | 25° |
| 2026-05-04 04:33 | 26.33751 | 75.00468 | 36847 ft | 518 kts | 25° |
| 2026-05-04 04:34 | 26.39979 | 75.04556 | 36853 ft | 518 kts | 25° |
| 2026-05-04 04:34 | 26.46170 | 75.08621 | 36995 ft | 520 kts | 25° |
| 2026-05-04 04:35 | 26.52429 | 75.12710 | 36874 ft | 522 kts | 25° |
| 2026-05-04 04:35 | 26.58707 | 75.16813 | 36853 ft | 522 kts | 25° |
| 2026-05-04 04:36 | 26.64969 | 75.20915 | 36846 ft | 521 kts | 25° |
| 2026-05-04 04:36 | 26.71227 | 75.25021 | 36841 ft | 520 kts | 25° |
| 2026-05-04 04:37 | 26.80443 | 75.31088 | 36678 ft | 499 kts | 25° |
| 2026-05-04 04:37 | 26.83423 | 75.33051 | 36267 ft | 495 kts | 25° |
| 2026-05-04 04:38 | 26.86349 | 75.34978 | 35868 ft | 491 kts | 25° |
| 2026-05-04 04:38 | 26.89284 | 75.36910 | 35472 ft | 486 kts | 25° |
| 2026-05-04 04:38 | 26.92196 | 75.38828 | 35053 ft | 483 kts | 25° |
| 2026-05-04 04:38 | 26.95085 | 75.40732 | 34619 ft | 480 kts | 25° |
| 2026-05-04 04:39 | 26.97959 | 75.42628 | 34174 ft | 478 kts | 25° |
| 2026-05-04 04:39 | 27.00824 | 75.44519 | 33738 ft | 475 kts | 25° |
| 2026-05-04 04:39 | 27.03634 | 75.46375 | 33259 ft | 472 kts | 25° |
| 2026-05-04 04:39 | 27.06455 | 75.48241 | 32820 ft | 468 kts | 25° |
| 2026-05-04 04:40 | 27.09251 | 75.50091 | 32392 ft | 465 kts | 26° |
| 2026-05-04 04:40 | 27.12033 | 75.51933 | 31966 ft | 461 kts | 26° |
| 2026-05-04 04:40 | 27.14788 | 75.53757 | 31545 ft | 458 kts | 26° |
| 2026-05-04 04:40 | 27.17520 | 75.55568 | 31127 ft | 454 kts | 26° |
| 2026-05-04 04:41 | 27.20236 | 75.57369 | 30713 ft | 452 kts | 26° |
| 2026-05-04 04:41 | 27.22936 | 75.59159 | 30300 ft | 449 kts | 26° |
| 2026-05-04 04:41 | 27.25585 | 75.60917 | 29873 ft | 447 kts | 26° |
| 2026-05-04 04:41 | 27.28256 | 75.62691 | 29385 ft | 444 kts | 27° |
| 2026-05-04 04:42 | 27.30910 | 75.64455 | 28935 ft | 440 kts | 27° |
| 2026-05-04 04:42 | 27.33538 | 75.66204 | 28498 ft | 437 kts | 27° |
| 2026-05-04 04:42 | 27.36145 | 75.67939 | 28071 ft | 433 kts | 27° |
| 2026-05-04 04:42 | 27.38734 | 75.69663 | 27632 ft | 429 kts | 27° |
| 2026-05-04 04:43 | 27.41293 | 75.71367 | 27235 ft | 426 kts | 27° |
| 2026-05-04 04:43 | 27.43833 | 75.73060 | 26822 ft | 423 kts | 27° |
| 2026-05-04 04:43 | 27.46360 | 75.74745 | 26416 ft | 420 kts | 27° |
| 2026-05-04 04:43 | 27.48839 | 75.76399 | 26022 ft | 417 kts | 27° |
| 2026-05-04 04:44 | 27.51318 | 75.78053 | 25616 ft | 414 kts | 27° |
| 2026-05-04 04:44 | 27.53806 | 75.79715 | 25209 ft | 412 kts | 27° |
| 2026-05-04 04:44 | 27.56264 | 75.81358 | 24813 ft | 410 kts | 27° |
| 2026-05-04 04:44 | 27.58722 | 75.83001 | 24411 ft | 408 kts | 27° |
| 2026-05-04 04:45 | 27.61156 | 75.84629 | 23999 ft | 407 kts | 27° |
| 2026-05-04 04:45 | 27.63648 | 75.86120 | 23594 ft | 403 kts | 21° |
| 2026-05-04 04:45 | 27.66243 | 75.87290 | 23141 ft | 399 kts | 14° |
| 2026-05-04 04:47 | 27.81856 | 75.92491 | 20683 ft | 383 kts | 13° |
| 2026-05-04 04:47 | 27.84398 | 75.93347 | 20283 ft | 380 kts | 13° |
| 2026-05-04 04:47 | 27.86929 | 75.94201 | 19905 ft | 378 kts | 13° |
| 2026-05-04 04:47 | 27.89442 | 75.95051 | 19503 ft | 376 kts | 13° |
| 2026-05-04 04:48 | 27.91914 | 75.95888 | 19095 ft | 364 kts | 13° |
| 2026-05-04 04:49 | 28.01342 | 75.99081 | 17557 ft | 351 kts | 13° |
| 2026-05-04 04:49 | 28.03679 | 75.99873 | 17168 ft | 349 kts | 13° |
| 2026-05-04 04:49 | 28.06014 | 76.00665 | 16782 ft | 347 kts | 13° |
| 2026-05-04 04:49 | 28.08321 | 76.01448 | 16409 ft | 345 kts | 13° |
| 2026-05-04 04:50 | 28.10596 | 76.02221 | 16048 ft | 343 kts | 13° |
| 2026-05-04 04:50 | 28.12878 | 76.02996 | 15681 ft | 341 kts | 13° |
| 2026-05-04 04:50 | 28.15148 | 76.03767 | 15315 ft | 340 kts | 13° |
| 2026-05-04 04:50 | 28.17392 | 76.04531 | 15144 ft | 332 kts | 13° |
| 2026-05-04 04:51 | 28.19583 | 76.05277 | 14978 ft | 324 kts | 13° |
| 2026-05-04 04:51 | 28.21658 | 76.06138 | 14821 ft | 315 kts | 28° |
| 2026-05-04 04:51 | 28.23311 | 76.07753 | 14557 ft | 317 kts | 51° |
| 2026-05-04 04:51 | 28.24413 | 76.09902 | 14241 ft | 314 kts | 62° |
| 2026-05-04 04:52 | 28.25388 | 76.12125 | 13907 ft | 314 kts | 63° |
| 2026-05-04 04:52 | 28.26348 | 76.14351 | 13565 ft | 315 kts | 63° |
| 2026-05-04 04:52 | 28.27300 | 76.16552 | 13189 ft | 316 kts | 63° |
| 2026-05-04 04:52 | 28.28275 | 76.18789 | 12817 ft | 316 kts | 62° |
| 2026-05-04 04:53 | 28.29257 | 76.21027 | 12461 ft | 316 kts | 62° |
| 2026-05-04 04:53 | 28.30244 | 76.23265 | 12108 ft | 316 kts | 62° |
| 2026-05-04 04:53 | 28.31227 | 76.25498 | 11755 ft | 316 kts | 62° |
| 2026-05-04 04:53 | 28.32209 | 76.27727 | 11411 ft | 316 kts | 62° |
| 2026-05-04 04:54 | 28.33189 | 76.29947 | 11107 ft | 313 kts | 62° |
| 2026-05-04 04:54 | 28.34165 | 76.32156 | 10779 ft | 307 kts | 63° |
| 2026-05-04 04:54 | 28.35113 | 76.34303 | 10370 ft | 302 kts | 63° |
| 2026-05-04 04:54 | 28.36029 | 76.36381 | 10041 ft | 294 kts | 63° |
| 2026-05-04 04:55 | 28.36940 | 76.38446 | 9783 ft | 290 kts | 63° |
| 2026-05-04 04:55 | 28.37830 | 76.40464 | 9661 ft | 281 kts | 63° |
| 2026-05-04 04:55 | 28.38693 | 76.42423 | 9428 ft | 277 kts | 63° |
| 2026-05-04 04:55 | 28.39561 | 76.44394 | 9014 ft | 279 kts | 63° |
| 2026-05-04 04:56 | 28.40419 | 76.46342 | 8786 ft | 274 kts | 63° |
| 2026-05-04 04:56 | 28.41266 | 76.48267 | 8488 ft | 270 kts | 64° |
| 2026-05-04 04:56 | 28.42099 | 76.50163 | 8236 ft | 265 kts | 64° |
| 2026-05-04 04:56 | 28.42918 | 76.52027 | 8021 ft | 262 kts | 64° |
| 2026-05-04 04:57 | 28.43728 | 76.53872 | 7791 ft | 260 kts | 64° |
| 2026-05-04 04:57 | 28.44532 | 76.55703 | 7562 ft | 257 kts | 64° |
| 2026-05-04 04:57 | 28.45314 | 76.57487 | 7342 ft | 255 kts | 65° |
| 2026-05-04 04:57 | 28.46112 | 76.59305 | 7117 ft | 252 kts | 65° |
| 2026-05-04 04:58 | 28.46880 | 76.61058 | 6892 ft | 251 kts | 65° |
| 2026-05-04 04:58 | 28.47656 | 76.62832 | 6697 ft | 251 kts | 65° |
| 2026-05-04 04:58 | 28.48437 | 76.64614 | 6475 ft | 253 kts | 65° |
| 2026-05-04 04:58 | 28.49226 | 76.66415 | 6236 ft | 255 kts | 66° |
| 2026-05-04 04:59 | 28.50014 | 76.68215 | 6041 ft | 254 kts | 66° |
| 2026-05-04 04:59 | 28.50794 | 76.69996 | 5794 ft | 249 kts | 66° |
| 2026-05-04 04:59 | 28.51560 | 76.71746 | 5565 ft | 244 kts | 67° |
| 2026-05-04 04:59 | 28.52327 | 76.73446 | 5370 ft | 238 kts | 62° |
| 2026-05-04 05:00 | 28.53247 | 76.74964 | 5240 ft | 230 kts | 57° |
| 2026-05-04 05:00 | 28.54189 | 76.76403 | 5064 ft | 223 kts | 57° |
| 2026-05-04 05:00 | 28.55978 | 76.79176 | 4723 ft | 215 kts | 58° |
| 2026-05-04 05:01 | 28.56850 | 76.80545 | 4536 ft | 213 kts | 59° |
| 2026-05-04 05:01 | 28.57715 | 76.81909 | 4348 ft | 211 kts | 59° |
| 2026-05-04 05:01 | 28.58566 | 76.83254 | 4185 ft | 208 kts | 59° |
| 2026-05-04 05:01 | 28.59212 | 76.84640 | 3962 ft | 195 kts | 85° |
| 2026-05-04 05:02 | 28.59152 | 76.86104 | 3829 ft | 181 kts | 99° |
| 2026-05-04 05:02 | 28.59004 | 76.87553 | 3697 ft | 186 kts | 101° |
| 2026-05-04 05:02 | 28.58783 | 76.89015 | 3530 ft | 188 kts | 104° |
| 2026-05-04 05:02 | 28.58498 | 76.90468 | 3360 ft | 188 kts | 104° |
| 2026-05-04 05:03 | 28.58197 | 76.91904 | 3191 ft | 185 kts | 104° |
| 2026-05-04 05:03 | 28.57898 | 76.93310 | 3012 ft | 179 kts | 105° |
| 2026-05-04 05:04 | 28.57073 | 76.97165 | 2552 ft | 168 kts | 104° |
| 2026-05-04 05:04 | 28.56804 | 76.98425 | 2357 ft | 159 kts | 104° |
| 2026-05-04 05:04 | 28.56557 | 76.99585 | 2140 ft | 141 kts | 103° |
| 2026-05-04 05:06 | 28.54959 | 77.07044 | 843 ft | 140 kts | 97° |
| 2026-05-04 05:06 | 28.54752 | 77.08080 | 747 ft | 126 kts | 101° |
| 2026-05-04 05:06 | 28.54572 | 77.08894 | 755 ft | 80 kts | 104° |
| 2026-05-04 05:07 | 28.54482 | 77.09311 | 758 ft | 36 kts | 103° |
| 2026-05-04 05:07 | 28.54494 | 77.09558 | 757 ft | 27 kts | 75° |
| 2026-05-04 05:07 | 28.54523 | 77.09675 | 766 ft | 11 kts | 74° |
| 2026-05-04 05:09 | 28.54876 | 77.09222 | 756 ft | 17 kts | 328° |
| 2026-05-04 05:09 | 28.54944 | 77.09175 | 752 ft | 17 kts | 330° |
| 2026-05-04 05:10 | 28.55048 | 77.09106 | 751 ft | 17 kts | 329° |
| 2026-05-04 05:10 | 28.55109 | 77.09064 | 752 ft | 5 kts | 329° |
| 2026-05-04 05:10 | 28.55123 | 77.09039 | 749 ft | 6 kts | 282° |
| 2026-05-04 05:10 | 28.55109 | 77.08993 | 749 ft | 7 kts | 234° |
| 2026-05-04 05:11 | 28.55084 | 77.08952 | 750 ft | 0 kts | 236° |